CFG302 EDDF-FSIA
Flight info
| Callsign | CFG302 |
|---|---|
| Flight time | 9h 7m |
| Altitude | 29000 |
| Route | CINDY8S/18 CINDY Z74 LAMPU DCT NOMBO Y161 MAH/N0461F310 L173 OTT M867 RADIZ/N0473F370 DCT NEMEK DCT ELTIB DCT GLOMY DCT PETAK DCT DIMIS DCT IPTES UL604 TRL DCT SALUN N705 BOPIX N710 TAKRI P751 LXR M999 JDW G650 RASKA/N0479F380 G650 ULONI/N0474F390 UV790 SB UR775 HARGA/N0476F380 UM651 MURAL/N0476F370 UG651 KUSUB UM651 ESTOK/N0476F360 UM651 IMSES/N0478F350 DCT XABAL T154 UNBED |
| Aircraft | A339/H-SDE1E2E3GHIJ1J4J7LM1OP2RVWXYZ/LB1D1 |
Departure
| Time | 2026-05-08 13:35 |
|---|---|
| Airport | Frankfurt Main Airport (EDDF) |
Arrival
| Time | 2026-05-08 22:43 |
|---|---|
| Airport | Seychelles International Airport (FSIA) |
| Time | Latitude | Longitude | Altitude | Speed | Heading |
|---|---|---|---|---|---|
| 2026-05-08 12:44 | 50.04841 | 8.57632 | 381 ft | 0 kts | 206° |
| 2026-05-08 12:45 | 50.04833 | 8.57627 | 381 ft | 0 kts | 206° |
| 2026-05-08 12:45 | 50.04836 | 8.57629 | 381 ft | 0 kts | 206° |
| 2026-05-08 13:13 | 50.04848 | 8.57637 | 381 ft | 2 kts | 204° |
| 2026-05-08 13:13 | 50.04861 | 8.57647 | 381 ft | 2 kts | 206° |
| 2026-05-08 13:14 | 50.04874 | 8.57657 | 381 ft | 2 kts | 206° |
| 2026-05-08 13:14 | 50.04889 | 8.57662 | 381 ft | 2 kts | 164° |
| 2026-05-08 13:14 | 50.04902 | 8.57650 | 381 ft | 2 kts | 124° |
| 2026-05-08 13:14 | 50.04908 | 8.57629 | 381 ft | 2 kts | 109° |
| 2026-05-08 13:15 | 50.04913 | 8.57607 | 381 ft | 2 kts | 115° |
| 2026-05-08 13:15 | 50.04919 | 8.57588 | 381 ft | 0 kts | 115° |
| 2026-05-08 13:15 | 50.04920 | 8.57587 | 381 ft | 0 kts | 115° |
| 2026-05-08 13:20 | 50.04919 | 8.57590 | 381 ft | 0 kts | 115° |
| 2026-05-08 13:20 | 50.04915 | 8.57603 | 381 ft | 2 kts | 115° |
| 2026-05-08 13:20 | 50.04902 | 8.57645 | 381 ft | 5 kts | 115° |
| 2026-05-08 13:21 | 50.04881 | 8.57717 | 381 ft | 8 kts | 115° |
| 2026-05-08 13:21 | 50.04855 | 8.57811 | 381 ft | 10 kts | 114° |
| 2026-05-08 13:21 | 50.04809 | 8.57897 | 381 ft | 10 kts | 147° |
| 2026-05-08 13:21 | 50.04738 | 8.57944 | 381 ft | 11 kts | 160° |
| 2026-05-08 13:22 | 50.04661 | 8.57987 | 381 ft | 12 kts | 160° |
| 2026-05-08 13:22 | 50.04603 | 8.58020 | 381 ft | 7 kts | 160° |
| 2026-05-08 13:22 | 50.04565 | 8.58031 | 381 ft | 5 kts | 192° |
| 2026-05-08 13:22 | 50.04536 | 8.57984 | 381 ft | 6 kts | 245° |
| 2026-05-08 13:23 | 50.04517 | 8.57909 | 381 ft | 8 kts | 249° |
| 2026-05-08 13:23 | 50.04496 | 8.57820 | 381 ft | 9 kts | 250° |
| 2026-05-08 13:23 | 50.04472 | 8.57720 | 381 ft | 10 kts | 250° |
| 2026-05-08 13:23 | 50.04447 | 8.57613 | 381 ft | 11 kts | 250° |
| 2026-05-08 13:24 | 50.04419 | 8.57497 | 381 ft | 11 kts | 249° |
| 2026-05-08 13:24 | 50.04390 | 8.57375 | 381 ft | 12 kts | 250° |
| 2026-05-08 13:24 | 50.04360 | 8.57249 | 381 ft | 12 kts | 249° |
| 2026-05-08 13:24 | 50.04328 | 8.57118 | 381 ft | 13 kts | 250° |
| 2026-05-08 13:25 | 50.04295 | 8.56984 | 381 ft | 13 kts | 249° |
| 2026-05-08 13:25 | 50.04262 | 8.56846 | 381 ft | 13 kts | 250° |
| 2026-05-08 13:25 | 50.04229 | 8.56704 | 381 ft | 14 kts | 250° |
| 2026-05-08 13:25 | 50.04195 | 8.56560 | 381 ft | 14 kts | 250° |
| 2026-05-08 13:26 | 50.04160 | 8.56414 | 381 ft | 14 kts | 250° |
| 2026-05-08 13:26 | 50.04125 | 8.56268 | 381 ft | 14 kts | 249° |
| 2026-05-08 13:26 | 50.04089 | 8.56118 | 381 ft | 14 kts | 250° |
| 2026-05-08 13:26 | 50.04053 | 8.55968 | 381 ft | 14 kts | 250° |
| 2026-05-08 13:27 | 50.04016 | 8.55816 | 381 ft | 14 kts | 250° |
| 2026-05-08 13:27 | 50.03980 | 8.55665 | 381 ft | 15 kts | 250° |
| 2026-05-08 13:27 | 50.03943 | 8.55512 | 381 ft | 15 kts | 250° |
| 2026-05-08 13:27 | 50.03907 | 8.55360 | 381 ft | 15 kts | 250° |
| 2026-05-08 13:28 | 50.03870 | 8.55205 | 381 ft | 15 kts | 250° |
| 2026-05-08 13:28 | 50.03833 | 8.55052 | 381 ft | 15 kts | 250° |
| 2026-05-08 13:28 | 50.03796 | 8.54897 | 381 ft | 15 kts | 250° |
| 2026-05-08 13:28 | 50.03759 | 8.54741 | 381 ft | 15 kts | 250° |
| 2026-05-08 13:29 | 50.03723 | 8.54588 | 381 ft | 14 kts | 251° |
| 2026-05-08 13:29 | 50.03687 | 8.54437 | 381 ft | 14 kts | 249° |
| 2026-05-08 13:29 | 50.03650 | 8.54285 | 381 ft | 15 kts | 249° |
| 2026-05-08 13:29 | 50.03613 | 8.54133 | 381 ft | 15 kts | 250° |
| 2026-05-08 13:30 | 50.03577 | 8.53979 | 381 ft | 15 kts | 250° |
| 2026-05-08 13:30 | 50.03540 | 8.53823 | 381 ft | 15 kts | 250° |
| 2026-05-08 13:30 | 50.03499 | 8.53653 | 381 ft | 17 kts | 250° |
| 2026-05-08 13:30 | 50.03456 | 8.53475 | 381 ft | 17 kts | 250° |
| 2026-05-08 13:31 | 50.03414 | 8.53298 | 381 ft | 17 kts | 250° |
| 2026-05-08 13:31 | 50.03373 | 8.53126 | 381 ft | 16 kts | 250° |
| 2026-05-08 13:31 | 50.03334 | 8.52963 | 380 ft | 13 kts | 250° |
| 2026-05-08 13:31 | 50.03305 | 8.52844 | 380 ft | 10 kts | 250° |
| 2026-05-08 13:32 | 50.03284 | 8.52755 | 380 ft | 4 kts | 250° |
| 2026-05-08 13:32 | 50.03283 | 8.52748 | 380 ft | 0 kts | 250° |
| 2026-05-08 13:32 | 50.03282 | 8.52748 | 380 ft | 0 kts | 250° |
| 2026-05-08 13:32 | 50.03272 | 8.52702 | 380 ft | 9 kts | 250° |
| 2026-05-08 13:33 | 50.03251 | 8.52617 | 380 ft | 5 kts | 240° |
| 2026-05-08 13:33 | 50.03216 | 8.52591 | 380 ft | 4 kts | 181° |
| 2026-05-08 13:33 | 50.03213 | 8.52591 | 380 ft | 0 kts | 179° |
| 2026-05-08 13:34 | 50.03210 | 8.52591 | 380 ft | 0 kts | 180° |
| 2026-05-08 13:34 | 50.03209 | 8.52591 | 380 ft | 0 kts | 180° |
| 2026-05-08 13:34 | 50.03086 | 8.52592 | 380 ft | 47 kts | 179° |
| 2026-05-08 13:35 | 50.02537 | 8.52599 | 380 ft | 108 kts | 180° |
| 2026-05-08 13:35 | 50.01604 | 8.52606 | 380 ft | 159 kts | 180° |
| 2026-05-08 13:35 | 50.00373 | 8.52619 | 654 ft | 181 kts | 178° |
| 2026-05-08 13:35 | 49.99174 | 8.52631 | 1354 ft | 172 kts | 179° |
| 2026-05-08 13:36 | 49.97974 | 8.52636 | 1813 ft | 174 kts | 179° |
| 2026-05-08 13:36 | 49.96751 | 8.52846 | 2106 ft | 181 kts | 154° |
| 2026-05-08 13:36 | 49.95805 | 8.54093 | 2410 ft | 186 kts | 123° |
| 2026-05-08 13:36 | 49.95170 | 8.55928 | 2678 ft | 199 kts | 115° |
| 2026-05-08 13:37 | 49.94577 | 8.57941 | 3012 ft | 210 kts | 113° |
| 2026-05-08 13:37 | 49.94016 | 8.60056 | 3344 ft | 220 kts | 103° |
| 2026-05-08 13:37 | 49.93831 | 8.62448 | 3715 ft | 228 kts | 90° |
| 2026-05-08 13:37 | 49.93828 | 8.64992 | 4058 ft | 241 kts | 91° |
| 2026-05-08 13:38 | 49.93747 | 8.67648 | 4338 ft | 256 kts | 99° |
| 2026-05-08 13:38 | 49.93020 | 8.70196 | 4746 ft | 266 kts | 131° |
| 2026-05-08 13:38 | 49.91577 | 8.72026 | 5371 ft | 268 kts | 145° |
| 2026-05-08 13:38 | 49.90037 | 8.73670 | 5964 ft | 269 kts | 145° |
| 2026-05-08 13:39 | 49.88596 | 8.75552 | 6527 ft | 271 kts | 131° |
| 2026-05-08 13:39 | 49.87513 | 8.77890 | 7074 ft | 272 kts | 120° |
| 2026-05-08 13:39 | 49.86577 | 8.80463 | 7589 ft | 276 kts | 118° |
| 2026-05-08 13:39 | 49.85642 | 8.83107 | 8087 ft | 280 kts | 119° |
| 2026-05-08 13:40 | 49.84704 | 8.85737 | 8589 ft | 284 kts | 119° |
| 2026-05-08 13:40 | 49.83741 | 8.88417 | 9077 ft | 288 kts | 120° |
| 2026-05-08 13:40 | 49.82753 | 8.91151 | 9575 ft | 291 kts | 120° |
| 2026-05-08 13:40 | 49.81760 | 8.93889 | 10067 ft | 294 kts | 120° |
| 2026-05-08 13:41 | 49.80746 | 8.96677 | 10466 ft | 302 kts | 120° |
| 2026-05-08 13:41 | 49.79797 | 8.99280 | 10682 ft | 314 kts | 120° |
| 2026-05-08 13:41 | 49.78690 | 9.02314 | 10916 ft | 327 kts | 120° |
| 2026-05-08 13:41 | 49.77550 | 9.05437 | 11157 ft | 340 kts | 119° |
| 2026-05-08 13:42 | 49.76494 | 9.08778 | 11386 ft | 354 kts | 113° |
| 2026-05-08 13:42 | 49.75660 | 9.12417 | 11611 ft | 367 kts | 106° |
| 2026-05-08 13:42 | 49.74920 | 9.16291 | 11846 ft | 379 kts | 111° |
| 2026-05-08 13:42 | 49.73739 | 9.19985 | 12222 ft | 386 kts | 123° |
| 2026-05-08 13:43 | 49.72121 | 9.23300 | 12746 ft | 388 kts | 131° |
| 2026-05-08 13:43 | 49.70341 | 9.26479 | 13285 ft | 391 kts | 132° |
| 2026-05-08 13:43 | 49.68537 | 9.29631 | 13818 ft | 394 kts | 132° |
| 2026-05-08 13:43 | 49.66721 | 9.32805 | 14338 ft | 397 kts | 132° |
| 2026-05-08 13:44 | 49.64898 | 9.36007 | 14846 ft | 400 kts | 132° |
| 2026-05-08 13:44 | 49.63014 | 9.39162 | 15351 ft | 402 kts | 137° |
| 2026-05-08 13:44 | 49.60878 | 9.42015 | 15857 ft | 404 kts | 144° |
| 2026-05-08 13:44 | 49.58579 | 9.44425 | 16343 ft | 406 kts | 149° |
| 2026-05-08 13:45 | 49.56139 | 9.46676 | 16857 ft | 408 kts | 150° |
| 2026-05-08 13:45 | 49.53686 | 9.48899 | 17363 ft | 411 kts | 151° |
| 2026-05-08 13:45 | 49.51214 | 9.51137 | 17844 ft | 414 kts | 151° |
| 2026-05-08 13:45 | 49.48698 | 9.53421 | 18332 ft | 417 kts | 150° |
| 2026-05-08 13:46 | 49.46191 | 9.55701 | 18819 ft | 420 kts | 150° |
| 2026-05-08 13:46 | 49.43705 | 9.57966 | 19320 ft | 422 kts | 150° |
| 2026-05-08 13:46 | 49.41165 | 9.60276 | 19783 ft | 425 kts | 151° |
| 2026-05-08 13:46 | 49.38598 | 9.62608 | 20243 ft | 427 kts | 150° |
| 2026-05-08 13:47 | 49.36061 | 9.65010 | 20683 ft | 431 kts | 148° |
| 2026-05-08 13:47 | 49.33652 | 9.67708 | 21109 ft | 435 kts | 143° |
| 2026-05-08 13:47 | 49.31338 | 9.70798 | 21537 ft | 438 kts | 138° |
| 2026-05-08 13:47 | 49.29213 | 9.74003 | 21934 ft | 441 kts | 137° |
| 2026-05-08 13:48 | 49.27019 | 9.77365 | 22338 ft | 444 kts | 137° |
| 2026-05-08 13:48 | 49.24803 | 9.80766 | 22747 ft | 446 kts | 137° |
| 2026-05-08 13:48 | 49.22611 | 9.84120 | 23133 ft | 449 kts | 137° |
| 2026-05-08 13:48 | 49.20365 | 9.87548 | 23518 ft | 451 kts | 137° |
| 2026-05-08 13:49 | 49.18135 | 9.90940 | 23891 ft | 453 kts | 137° |
| 2026-05-08 13:49 | 49.15897 | 9.94341 | 24258 ft | 455 kts | 137° |
| 2026-05-08 13:49 | 49.13655 | 9.97739 | 24609 ft | 457 kts | 137° |
| 2026-05-08 13:49 | 49.11384 | 10.01177 | 24944 ft | 459 kts | 137° |
| 2026-05-08 13:50 | 49.09103 | 10.04622 | 25267 ft | 462 kts | 137° |
| 2026-05-08 13:50 | 49.06809 | 10.08082 | 25575 ft | 464 kts | 137° |
| 2026-05-08 13:50 | 49.04485 | 10.11495 | 25858 ft | 466 kts | 139° |
| 2026-05-08 13:50 | 49.02102 | 10.14860 | 26148 ft | 468 kts | 139° |
| 2026-05-08 13:51 | 48.99697 | 10.18228 | 26444 ft | 470 kts | 139° |
| 2026-05-08 13:51 | 48.97275 | 10.21624 | 26740 ft | 472 kts | 139° |
| 2026-05-08 13:51 | 48.94870 | 10.25009 | 27024 ft | 474 kts | 139° |
| 2026-05-08 13:51 | 48.92454 | 10.28419 | 27332 ft | 474 kts | 139° |
| 2026-05-08 13:52 | 48.90047 | 10.31820 | 27675 ft | 474 kts | 139° |
| 2026-05-08 13:52 | 48.87623 | 10.35239 | 27986 ft | 475 kts | 140° |
| 2026-05-08 13:52 | 48.85191 | 10.38659 | 28271 ft | 477 kts | 139° |
| 2026-05-08 13:52 | 48.82771 | 10.42145 | 28532 ft | 479 kts | 137° |
| 2026-05-08 13:53 | 48.80476 | 10.45758 | 28829 ft | 480 kts | 135° |
| 2026-05-08 13:53 | 48.78163 | 10.49472 | 29027 ft | 481 kts | 136° |
| 2026-05-08 13:53 | 48.73573 | 10.56819 | 29034 ft | 481 kts | 136° |
| 2026-05-08 13:54 | 48.68936 | 10.64212 | 29042 ft | 482 kts | 136° |
| 2026-05-08 13:54 | 48.64399 | 10.71430 | 29035 ft | 482 kts | 137° |
| 2026-05-08 13:55 | 48.59758 | 10.78786 | 29039 ft | 482 kts | 137° |
| 2026-05-08 13:56 | 48.52874 | 10.89778 | 29045 ft | 482 kts | 137° |
| 2026-05-08 13:56 | 48.48234 | 10.97173 | 29043 ft | 482 kts | 137° |
| 2026-05-08 13:57 | 48.43574 | 11.04438 | 29041 ft | 483 kts | 138° |
| 2026-05-08 13:57 | 48.41217 | 11.08099 | 29171 ft | 487 kts | 138° |
| 2026-05-08 13:57 | 48.38855 | 11.11773 | 29514 ft | 486 kts | 138° |
| 2026-05-08 13:57 | 48.36505 | 11.15428 | 29914 ft | 483 kts | 138° |
| 2026-05-08 13:58 | 48.34172 | 11.19043 | 30282 ft | 482 kts | 138° |
| 2026-05-08 13:58 | 48.31843 | 11.22671 | 30605 ft | 481 kts | 137° |
| 2026-05-08 13:58 | 48.29684 | 11.26556 | 30914 ft | 485 kts | 131° |
| 2026-05-08 13:58 | 48.27780 | 11.30786 | 31023 ft | 489 kts | 125° |
| 2026-05-08 13:59 | 48.26174 | 11.35326 | 31035 ft | 493 kts | 118° |
| 2026-05-08 13:59 | 48.23932 | 11.45179 | 31033 ft | 502 kts | 108° |
| 2026-05-08 14:00 | 48.22298 | 11.55516 | 31031 ft | 502 kts | 106° |
| 2026-05-08 14:00 | 48.20692 | 11.65575 | 31023 ft | 503 kts | 108° |
| 2026-05-08 14:01 | 48.18651 | 11.75627 | 31020 ft | 497 kts | 118° |
| 2026-05-08 14:01 | 48.15236 | 11.84489 | 31025 ft | 487 kts | 132° |
| 2026-05-08 14:02 | 48.10674 | 11.91812 | 31020 ft | 480 kts | 143° |
| 2026-05-08 14:02 | 48.05759 | 11.98544 | 31014 ft | 480 kts | 143° |
| 2026-05-08 14:03 | 48.00808 | 12.05299 | 31017 ft | 478 kts | 143° |
| 2026-05-08 14:03 | 47.95966 | 12.11922 | 31027 ft | 480 kts | 143° |
| 2026-05-08 14:04 | 47.90917 | 12.18539 | 31019 ft | 478 kts | 146° |
| 2026-05-08 14:04 | 47.85871 | 12.24878 | 31037 ft | 477 kts | 145° |
| 2026-05-08 14:05 | 47.80792 | 12.31259 | 31036 ft | 477 kts | 145° |
| 2026-05-08 14:05 | 47.75768 | 12.37549 | 31041 ft | 476 kts | 145° |
| 2026-05-08 14:06 | 47.70730 | 12.43836 | 31050 ft | 474 kts | 146° |
| 2026-05-08 14:06 | 47.65641 | 12.50113 | 31045 ft | 474 kts | 145° |
| 2026-05-08 14:07 | 47.60679 | 12.56563 | 31055 ft | 477 kts | 141° |
| 2026-05-08 14:07 | 47.55862 | 12.63382 | 31053 ft | 477 kts | 141° |
| 2026-05-08 14:08 | 47.51066 | 12.70148 | 31059 ft | 477 kts | 142° |
| 2026-05-08 14:08 | 47.46390 | 12.76739 | 31076 ft | 476 kts | 142° |
| 2026-05-08 14:09 | 47.41562 | 12.83522 | 31071 ft | 477 kts | 142° |
| 2026-05-08 14:09 | 47.36770 | 12.90240 | 31077 ft | 476 kts | 142° |
| 2026-05-08 14:10 | 47.31969 | 12.96954 | 31068 ft | 475 kts | 142° |
| 2026-05-08 14:10 | 47.27173 | 13.03642 | 31075 ft | 476 kts | 142° |
| 2026-05-08 14:11 | 47.22362 | 13.10334 | 31077 ft | 475 kts | 141° |
| 2026-05-08 14:11 | 47.17568 | 13.16986 | 31072 ft | 475 kts | 141° |
| 2026-05-08 14:12 | 47.12752 | 13.23655 | 31065 ft | 475 kts | 141° |
| 2026-05-08 14:12 | 47.07946 | 13.30287 | 31061 ft | 476 kts | 141° |
| 2026-05-08 14:13 | 47.03125 | 13.36926 | 31061 ft | 475 kts | 141° |
| 2026-05-08 14:13 | 46.98312 | 13.43537 | 31060 ft | 475 kts | 141° |
| 2026-05-08 14:14 | 46.93488 | 13.50145 | 31066 ft | 474 kts | 141° |
| 2026-05-08 14:14 | 46.88681 | 13.56713 | 31070 ft | 474 kts | 141° |
| 2026-05-08 14:15 | 46.83871 | 13.63268 | 31069 ft | 474 kts | 141° |
| 2026-05-08 14:15 | 46.79211 | 13.69602 | 31069 ft | 473 kts | 142° |
| 2026-05-08 14:16 | 46.74358 | 13.76180 | 31074 ft | 474 kts | 142° |
| 2026-05-08 14:16 | 46.69483 | 13.82774 | 31069 ft | 474 kts | 142° |
| 2026-05-08 14:17 | 46.64682 | 13.89250 | 31066 ft | 473 kts | 142° |
| 2026-05-08 14:17 | 46.59919 | 13.95656 | 31061 ft | 473 kts | 142° |
| 2026-05-08 14:18 | 46.55074 | 14.02158 | 31060 ft | 473 kts | 142° |
| 2026-05-08 14:18 | 46.50227 | 14.08647 | 31056 ft | 473 kts | 142° |
| 2026-05-08 14:19 | 46.45373 | 14.15131 | 31058 ft | 473 kts | 142° |
| 2026-05-08 14:19 | 46.40528 | 14.21580 | 31056 ft | 474 kts | 142° |
| 2026-05-08 14:20 | 46.35676 | 14.28025 | 31051 ft | 474 kts | 142° |
| 2026-05-08 14:20 | 46.30785 | 14.34507 | 31054 ft | 474 kts | 142° |
| 2026-05-08 14:21 | 46.25930 | 14.40924 | 31038 ft | 474 kts | 142° |
| 2026-05-08 14:21 | 46.21138 | 14.47242 | 31029 ft | 474 kts | 142° |
| 2026-05-08 14:22 | 46.16315 | 14.53584 | 31029 ft | 474 kts | 142° |
| 2026-05-08 14:22 | 46.11446 | 14.59970 | 31019 ft | 474 kts | 141° |
| 2026-05-08 14:23 | 46.06575 | 14.66347 | 31030 ft | 474 kts | 142° |
| 2026-05-08 14:23 | 46.01748 | 14.72650 | 31028 ft | 474 kts | 142° |
| 2026-05-08 14:24 | 45.96912 | 14.78948 | 31032 ft | 474 kts | 142° |
| 2026-05-08 14:24 | 45.91950 | 14.85393 | 31035 ft | 474 kts | 142° |
| 2026-05-08 14:25 | 45.87047 | 14.91746 | 31037 ft | 474 kts | 142° |
| 2026-05-08 14:25 | 45.82233 | 14.97968 | 31038 ft | 474 kts | 142° |
| 2026-05-08 14:26 | 45.77292 | 15.04339 | 31040 ft | 475 kts | 142° |
| 2026-05-08 14:26 | 45.72418 | 15.10612 | 31042 ft | 475 kts | 142° |
| 2026-05-08 14:27 | 45.67506 | 15.16918 | 31036 ft | 475 kts | 142° |
| 2026-05-08 14:27 | 45.62580 | 15.23231 | 31030 ft | 474 kts | 142° |
| 2026-05-08 14:28 | 45.57671 | 15.29502 | 31027 ft | 473 kts | 142° |
| 2026-05-08 14:28 | 45.52716 | 15.35632 | 31110 ft | 475 kts | 143° |
| 2026-05-08 14:28 | 45.50220 | 15.38678 | 31436 ft | 474 kts | 143° |
| 2026-05-08 14:29 | 45.47724 | 15.41726 | 31846 ft | 471 kts | 143° |
| 2026-05-08 14:29 | 45.45225 | 15.44776 | 32225 ft | 469 kts | 143° |
| 2026-05-08 14:29 | 45.42765 | 15.47780 | 32559 ft | 467 kts | 143° |
| 2026-05-08 14:29 | 45.40312 | 15.50772 | 32875 ft | 466 kts | 143° |
| 2026-05-08 14:30 | 45.37826 | 15.53803 | 33165 ft | 465 kts | 143° |
| 2026-05-08 14:30 | 45.35390 | 15.56772 | 33445 ft | 464 kts | 143° |
| 2026-05-08 14:30 | 45.32941 | 15.59752 | 33721 ft | 463 kts | 143° |
| 2026-05-08 14:30 | 45.30514 | 15.62704 | 34001 ft | 462 kts | 143° |
| 2026-05-08 14:31 | 45.28056 | 15.65688 | 34271 ft | 461 kts | 143° |
| 2026-05-08 14:31 | 45.25624 | 15.68640 | 34508 ft | 461 kts | 144° |
| 2026-05-08 14:31 | 45.23173 | 15.71610 | 34697 ft | 460 kts | 143° |
| 2026-05-08 14:32 | 45.18357 | 15.77433 | 34988 ft | 461 kts | 144° |
| 2026-05-08 14:32 | 45.15898 | 15.80401 | 35108 ft | 462 kts | 144° |
| 2026-05-08 14:32 | 45.13452 | 15.83351 | 35238 ft | 463 kts | 143° |
| 2026-05-08 14:32 | 45.10997 | 15.86306 | 35383 ft | 463 kts | 143° |
| 2026-05-08 14:33 | 45.08579 | 15.89217 | 35530 ft | 462 kts | 143° |
| 2026-05-08 14:33 | 45.06118 | 15.92173 | 35679 ft | 462 kts | 143° |
| 2026-05-08 14:33 | 45.03660 | 15.95125 | 35828 ft | 462 kts | 143° |
| 2026-05-08 14:33 | 45.01234 | 15.98033 | 35971 ft | 462 kts | 143° |
| 2026-05-08 14:34 | 44.98764 | 16.00993 | 36094 ft | 462 kts | 143° |
| 2026-05-08 14:34 | 44.96314 | 16.03924 | 36208 ft | 463 kts | 143° |
| 2026-05-08 14:34 | 44.93868 | 16.06847 | 36331 ft | 463 kts | 143° |
| 2026-05-08 14:34 | 44.91410 | 16.09781 | 36480 ft | 463 kts | 143° |
| 2026-05-08 14:35 | 44.88990 | 16.12667 | 36628 ft | 463 kts | 143° |
| 2026-05-08 14:35 | 44.86527 | 16.15599 | 36774 ft | 463 kts | 143° |
| 2026-05-08 14:35 | 44.84066 | 16.18527 | 36915 ft | 464 kts | 143° |
| 2026-05-08 14:35 | 44.81585 | 16.21475 | 37028 ft | 465 kts | 143° |
| 2026-05-08 14:36 | 44.76632 | 16.27347 | 37034 ft | 465 kts | 143° |
| 2026-05-08 14:36 | 44.71706 | 16.33178 | 37033 ft | 465 kts | 143° |
| 2026-05-08 14:37 | 44.66781 | 16.38993 | 37034 ft | 465 kts | 143° |
| 2026-05-08 14:37 | 44.61827 | 16.44828 | 37039 ft | 464 kts | 143° |
| 2026-05-08 14:38 | 44.56884 | 16.50637 | 37039 ft | 463 kts | 143° |
| 2026-05-08 14:38 | 44.51950 | 16.56424 | 37040 ft | 463 kts | 143° |
| 2026-05-08 14:39 | 44.47004 | 16.62211 | 37037 ft | 463 kts | 143° |
| 2026-05-08 14:39 | 44.42062 | 16.67983 | 37040 ft | 463 kts | 144° |
| 2026-05-08 14:40 | 44.37116 | 16.73749 | 37038 ft | 463 kts | 144° |
| 2026-05-08 14:40 | 44.32120 | 16.79558 | 37047 ft | 463 kts | 144° |
| 2026-05-08 14:41 | 44.27175 | 16.85281 | 37049 ft | 464 kts | 144° |
| 2026-05-08 14:41 | 44.22234 | 16.90975 | 37048 ft | 464 kts | 144° |
| 2026-05-08 14:42 | 44.17253 | 16.96715 | 37061 ft | 463 kts | 144° |
| 2026-05-08 14:42 | 44.12293 | 17.02421 | 37062 ft | 463 kts | 144° |
| 2026-05-08 14:43 | 44.07326 | 17.08119 | 37070 ft | 463 kts | 144° |
| 2026-05-08 14:43 | 44.02373 | 17.13793 | 37057 ft | 464 kts | 144° |
| 2026-05-08 14:44 | 43.97389 | 17.19487 | 37067 ft | 464 kts | 144° |
| 2026-05-08 14:44 | 43.92394 | 17.25184 | 37067 ft | 464 kts | 144° |
| 2026-05-08 14:45 | 43.87430 | 17.30830 | 37063 ft | 464 kts | 143° |
| 2026-05-08 14:45 | 43.82448 | 17.36489 | 37050 ft | 465 kts | 143° |
| 2026-05-08 14:46 | 43.77441 | 17.42163 | 37048 ft | 465 kts | 143° |
| 2026-05-08 14:46 | 43.72409 | 17.47851 | 37051 ft | 464 kts | 143° |
| 2026-05-08 14:47 | 43.67421 | 17.53482 | 37050 ft | 464 kts | 143° |
| 2026-05-08 14:47 | 43.62457 | 17.59072 | 37046 ft | 464 kts | 143° |
| 2026-05-08 14:48 | 43.57449 | 17.64693 | 37042 ft | 464 kts | 144° |
| 2026-05-08 14:48 | 43.52229 | 17.69914 | 37028 ft | 462 kts | 148° |
| 2026-05-08 14:49 | 43.46924 | 17.74973 | 37019 ft | 463 kts | 148° |
| 2026-05-08 14:49 | 43.41655 | 17.79993 | 37021 ft | 463 kts | 148° |
| 2026-05-08 14:50 | 43.36361 | 17.85033 | 37029 ft | 463 kts | 148° |
| 2026-05-08 14:50 | 43.31046 | 17.90076 | 37036 ft | 463 kts | 148° |
| 2026-05-08 14:51 | 43.25760 | 17.95086 | 37033 ft | 463 kts | 148° |
| 2026-05-08 14:51 | 43.20479 | 18.00082 | 37025 ft | 463 kts | 148° |
| 2026-05-08 14:52 | 43.12533 | 18.07571 | 37025 ft | 463 kts | 148° |
| 2026-05-08 14:53 | 43.07226 | 18.12561 | 37022 ft | 462 kts | 148° |
| 2026-05-08 14:53 | 43.01921 | 18.17539 | 37015 ft | 463 kts | 147° |
| 2026-05-08 14:54 | 42.96614 | 18.22508 | 37014 ft | 464 kts | 148° |
| 2026-05-08 14:54 | 42.91310 | 18.27464 | 37012 ft | 466 kts | 148° |
| 2026-05-08 14:55 | 42.85947 | 18.32467 | 37012 ft | 466 kts | 147° |
| 2026-05-08 14:55 | 42.80619 | 18.37424 | 37001 ft | 467 kts | 147° |
| 2026-05-08 14:56 | 42.75242 | 18.42416 | 37016 ft | 467 kts | 147° |
| 2026-05-08 14:56 | 42.69886 | 18.47381 | 37008 ft | 468 kts | 148° |
| 2026-05-08 14:57 | 42.64536 | 18.52323 | 37004 ft | 468 kts | 148° |
| 2026-05-08 14:57 | 42.59152 | 18.57290 | 37002 ft | 469 kts | 148° |
| 2026-05-08 14:58 | 42.53759 | 18.62254 | 37003 ft | 470 kts | 148° |
| 2026-05-08 14:58 | 42.48343 | 18.67229 | 37000 ft | 470 kts | 148° |
| 2026-05-08 14:59 | 42.42898 | 18.72223 | 36993 ft | 471 kts | 148° |
| 2026-05-08 14:59 | 42.34735 | 18.79685 | 36989 ft | 472 kts | 148° |
| 2026-05-08 15:00 | 42.29286 | 18.84654 | 36990 ft | 474 kts | 148° |
| 2026-05-08 15:00 | 42.23815 | 18.89633 | 36982 ft | 474 kts | 148° |
| 2026-05-08 15:01 | 42.18379 | 18.94570 | 36985 ft | 475 kts | 149° |
| 2026-05-08 15:01 | 42.12876 | 18.99557 | 36984 ft | 475 kts | 148° |
| 2026-05-08 15:02 | 42.07420 | 19.04490 | 36981 ft | 475 kts | 148° |
| 2026-05-08 15:02 | 42.01918 | 19.09455 | 36979 ft | 476 kts | 149° |
| 2026-05-08 15:03 | 41.96434 | 19.14395 | 36997 ft | 476 kts | 148° |
| 2026-05-08 15:03 | 41.90950 | 19.19325 | 37011 ft | 476 kts | 148° |
| 2026-05-08 15:04 | 41.85433 | 19.24279 | 37000 ft | 476 kts | 148° |
| 2026-05-08 15:04 | 41.79949 | 19.29188 | 36986 ft | 477 kts | 148° |
| 2026-05-08 15:05 | 41.74298 | 19.33848 | 36987 ft | 475 kts | 153° |
| 2026-05-08 15:05 | 41.68556 | 19.38272 | 36987 ft | 475 kts | 153° |
| 2026-05-08 15:06 | 41.62854 | 19.42668 | 36977 ft | 476 kts | 152° |
| 2026-05-08 15:06 | 41.57141 | 19.47067 | 36985 ft | 476 kts | 152° |
| 2026-05-08 15:07 | 41.51385 | 19.51489 | 36979 ft | 477 kts | 152° |
| 2026-05-08 15:07 | 41.45606 | 19.55925 | 36971 ft | 478 kts | 152° |
| 2026-05-08 15:08 | 41.40794 | 19.59610 | 36978 ft | 479 kts | 152° |
| 2026-05-08 15:08 | 41.34072 | 19.64747 | 36966 ft | 479 kts | 152° |
| 2026-05-08 15:09 | 41.28296 | 19.69151 | 36983 ft | 479 kts | 153° |
| 2026-05-08 15:09 | 41.22516 | 19.73548 | 36993 ft | 479 kts | 153° |
| 2026-05-08 15:10 | 41.16729 | 19.77941 | 36975 ft | 480 kts | 153° |
| 2026-05-08 15:10 | 41.10905 | 19.82354 | 36989 ft | 481 kts | 153° |
| 2026-05-08 15:11 | 41.05101 | 19.86741 | 36995 ft | 481 kts | 153° |
| 2026-05-08 15:11 | 40.99323 | 19.91102 | 36991 ft | 480 kts | 153° |
| 2026-05-08 15:12 | 40.93522 | 19.95473 | 36994 ft | 481 kts | 153° |
| 2026-05-08 15:12 | 40.87690 | 19.99858 | 37017 ft | 482 kts | 153° |
| 2026-05-08 15:13 | 40.81840 | 20.04242 | 37018 ft | 482 kts | 153° |
| 2026-05-08 15:13 | 40.76002 | 20.08615 | 37005 ft | 483 kts | 153° |
| 2026-05-08 15:14 | 40.70179 | 20.12965 | 37006 ft | 483 kts | 154° |
| 2026-05-08 15:14 | 40.64301 | 20.17346 | 37008 ft | 484 kts | 154° |
| 2026-05-08 15:15 | 40.58460 | 20.21692 | 37009 ft | 484 kts | 154° |
| 2026-05-08 15:15 | 40.52578 | 20.26061 | 37012 ft | 484 kts | 154° |
| 2026-05-08 15:16 | 40.46734 | 20.30388 | 37014 ft | 485 kts | 154° |
| 2026-05-08 15:16 | 40.40850 | 20.34740 | 37019 ft | 485 kts | 154° |
| 2026-05-08 15:17 | 40.34971 | 20.39080 | 37026 ft | 485 kts | 154° |
| 2026-05-08 15:17 | 40.29101 | 20.43406 | 37008 ft | 486 kts | 154° |
| 2026-05-08 15:18 | 40.23210 | 20.47735 | 37003 ft | 486 kts | 154° |
| 2026-05-08 15:18 | 40.17345 | 20.52044 | 37008 ft | 486 kts | 154° |
| 2026-05-08 15:19 | 40.11432 | 20.56379 | 37023 ft | 487 kts | 154° |
| 2026-05-08 15:19 | 40.05471 | 20.60692 | 37015 ft | 487 kts | 156° |
| 2026-05-08 15:20 | 39.99432 | 20.64726 | 37081 ft | 487 kts | 157° |
| 2026-05-08 15:20 | 39.93394 | 20.68719 | 37056 ft | 487 kts | 158° |
| 2026-05-08 15:21 | 39.87346 | 20.72740 | 37054 ft | 487 kts | 158° |
| 2026-05-08 15:21 | 39.81345 | 20.76736 | 37052 ft | 488 kts | 158° |
| 2026-05-08 15:22 | 39.75271 | 20.80774 | 37036 ft | 488 kts | 158° |
| 2026-05-08 15:22 | 39.69249 | 20.84771 | 37031 ft | 489 kts | 158° |
| 2026-05-08 15:23 | 39.66180 | 20.86804 | 36897 ft | 489 kts | 158° |
| 2026-05-08 15:23 | 39.63169 | 20.88795 | 37059 ft | 490 kts | 158° |
| 2026-05-08 15:23 | 39.60111 | 20.90819 | 36894 ft | 490 kts | 158° |
| 2026-05-08 15:23 | 39.57090 | 20.92818 | 36988 ft | 491 kts | 159° |
| 2026-05-08 15:24 | 39.50996 | 20.96837 | 37040 ft | 491 kts | 158° |
| 2026-05-08 15:24 | 39.44901 | 21.00851 | 37042 ft | 492 kts | 159° |
| 2026-05-08 15:25 | 39.38781 | 21.04874 | 37029 ft | 494 kts | 159° |
| 2026-05-08 15:25 | 39.32654 | 21.08894 | 37031 ft | 495 kts | 159° |
| 2026-05-08 15:26 | 39.26505 | 21.12919 | 37048 ft | 496 kts | 159° |
| 2026-05-08 15:26 | 39.20306 | 21.16974 | 37040 ft | 496 kts | 159° |
| 2026-05-08 15:27 | 39.14189 | 21.20959 | 37040 ft | 495 kts | 159° |
| 2026-05-08 15:27 | 39.08007 | 21.24982 | 37054 ft | 497 kts | 159° |
| 2026-05-08 15:28 | 39.01830 | 21.29000 | 37032 ft | 498 kts | 160° |
| 2026-05-08 15:28 | 38.98747 | 21.30998 | 37138 ft | 498 kts | 160° |
| 2026-05-08 15:28 | 38.95667 | 21.32994 | 37102 ft | 497 kts | 159° |
| 2026-05-08 15:29 | 38.89445 | 21.37019 | 37049 ft | 499 kts | 159° |
| 2026-05-08 15:29 | 38.83266 | 21.41017 | 37052 ft | 498 kts | 159° |
| 2026-05-08 15:30 | 38.77046 | 21.45029 | 37050 ft | 499 kts | 160° |
| 2026-05-08 15:30 | 38.70881 | 21.49000 | 37050 ft | 499 kts | 159° |
| 2026-05-08 15:31 | 38.64709 | 21.53063 | 37068 ft | 498 kts | 159° |
| 2026-05-08 15:31 | 38.58562 | 21.57143 | 37057 ft | 498 kts | 159° |
| 2026-05-08 15:32 | 38.52422 | 21.61206 | 37058 ft | 498 kts | 159° |
| 2026-05-08 15:32 | 38.46269 | 21.65270 | 37055 ft | 497 kts | 159° |
| 2026-05-08 15:33 | 38.40083 | 21.69348 | 37056 ft | 497 kts | 159° |
| 2026-05-08 15:33 | 38.33911 | 21.73406 | 37057 ft | 497 kts | 159° |
| 2026-05-08 15:34 | 38.27771 | 21.77434 | 37058 ft | 497 kts | 159° |
| 2026-05-08 15:34 | 38.21623 | 21.81461 | 37055 ft | 497 kts | 159° |
| 2026-05-08 15:35 | 38.15500 | 21.85462 | 37071 ft | 497 kts | 159° |
| 2026-05-08 15:35 | 38.09345 | 21.89481 | 37078 ft | 497 kts | 159° |
| 2026-05-08 15:36 | 38.03219 | 21.93473 | 37110 ft | 496 kts | 159° |
| 2026-05-08 15:36 | 37.97070 | 21.97466 | 37109 ft | 497 kts | 159° |
| 2026-05-08 15:37 | 37.90886 | 22.01484 | 37124 ft | 496 kts | 159° |
| 2026-05-08 15:37 | 37.84723 | 22.05473 | 37124 ft | 496 kts | 159° |
| 2026-05-08 15:38 | 37.78606 | 22.09429 | 37127 ft | 495 kts | 160° |
| 2026-05-08 15:38 | 37.72475 | 22.13383 | 37122 ft | 494 kts | 159° |
| 2026-05-08 15:39 | 37.66316 | 22.17350 | 37114 ft | 495 kts | 159° |
| 2026-05-08 15:39 | 37.60201 | 22.21282 | 37123 ft | 495 kts | 159° |
| 2026-05-08 15:40 | 37.54075 | 22.25219 | 37128 ft | 492 kts | 159° |
| 2026-05-08 15:40 | 37.48013 | 22.29107 | 37122 ft | 493 kts | 159° |
| 2026-05-08 15:41 | 37.41884 | 22.33028 | 37115 ft | 492 kts | 159° |
| 2026-05-08 15:41 | 37.35817 | 22.36930 | 37118 ft | 491 kts | 158° |
| 2026-05-08 15:42 | 37.29775 | 22.40849 | 37106 ft | 490 kts | 159° |
| 2026-05-08 15:42 | 37.23710 | 22.44778 | 37098 ft | 490 kts | 158° |
| 2026-05-08 15:43 | 37.17668 | 22.48689 | 37111 ft | 490 kts | 159° |
| 2026-05-08 15:43 | 37.11600 | 22.52607 | 37093 ft | 489 kts | 159° |
| 2026-05-08 15:44 | 37.05544 | 22.56513 | 37100 ft | 489 kts | 159° |
| 2026-05-08 15:44 | 36.99504 | 22.60401 | 37089 ft | 487 kts | 159° |
| 2026-05-08 15:45 | 36.93468 | 22.64277 | 37085 ft | 487 kts | 159° |
| 2026-05-08 15:45 | 36.87427 | 22.68152 | 37073 ft | 487 kts | 159° |
| 2026-05-08 15:46 | 36.81410 | 22.72003 | 37070 ft | 487 kts | 160° |
| 2026-05-08 15:46 | 36.75377 | 22.75856 | 37067 ft | 488 kts | 159° |
| 2026-05-08 15:47 | 36.69350 | 22.79699 | 37057 ft | 487 kts | 159° |
| 2026-05-08 15:47 | 36.63306 | 22.83548 | 37056 ft | 488 kts | 159° |
| 2026-05-08 15:48 | 36.54279 | 22.89283 | 37063 ft | 486 kts | 160° |
| 2026-05-08 15:49 | 36.48254 | 22.93101 | 37063 ft | 486 kts | 160° |
| 2026-05-08 15:49 | 36.42208 | 22.96926 | 37064 ft | 487 kts | 160° |
| 2026-05-08 15:50 | 36.36183 | 23.00732 | 37059 ft | 486 kts | 160° |
| 2026-05-08 15:50 | 36.30159 | 23.04530 | 37065 ft | 486 kts | 160° |
| 2026-05-08 15:51 | 36.24126 | 23.08326 | 37065 ft | 487 kts | 160° |
| 2026-05-08 15:51 | 36.18079 | 23.12126 | 37062 ft | 488 kts | 160° |
| 2026-05-08 15:52 | 36.12038 | 23.15916 | 37059 ft | 487 kts | 160° |
| 2026-05-08 15:52 | 36.06028 | 23.19679 | 37061 ft | 487 kts | 160° |
| 2026-05-08 15:53 | 35.99973 | 23.23463 | 37062 ft | 488 kts | 160° |
| 2026-05-08 15:53 | 35.93878 | 23.27267 | 37057 ft | 488 kts | 160° |
| 2026-05-08 15:54 | 35.87838 | 23.31028 | 37059 ft | 488 kts | 160° |
| 2026-05-08 15:54 | 35.81739 | 23.34823 | 37059 ft | 487 kts | 160° |
| 2026-05-08 15:55 | 35.75687 | 23.38575 | 37061 ft | 489 kts | 160° |
| 2026-05-08 15:55 | 35.66534 | 23.44246 | 37063 ft | 488 kts | 160° |
| 2026-05-08 15:56 | 35.60417 | 23.48027 | 37061 ft | 489 kts | 160° |
| 2026-05-08 15:56 | 35.54354 | 23.51768 | 37069 ft | 487 kts | 160° |
| 2026-05-08 15:57 | 35.48289 | 23.55506 | 37066 ft | 487 kts | 160° |
| 2026-05-08 15:57 | 35.42228 | 23.59232 | 37074 ft | 488 kts | 160° |
| 2026-05-08 15:58 | 35.36160 | 23.62956 | 37081 ft | 487 kts | 160° |
| 2026-05-08 15:58 | 35.30105 | 23.66668 | 37083 ft | 487 kts | 161° |
| 2026-05-08 15:59 | 35.24018 | 23.70394 | 37096 ft | 486 kts | 161° |
| 2026-05-08 15:59 | 35.17941 | 23.74103 | 37106 ft | 488 kts | 161° |
| 2026-05-08 16:00 | 35.11902 | 23.77785 | 37105 ft | 487 kts | 161° |
| 2026-05-08 16:00 | 35.05825 | 23.81485 | 37108 ft | 486 kts | 161° |
| 2026-05-08 16:01 | 34.99794 | 23.85152 | 37107 ft | 486 kts | 161° |
| 2026-05-08 16:01 | 34.93755 | 23.88815 | 37108 ft | 485 kts | 161° |
| 2026-05-08 16:02 | 34.87693 | 23.92484 | 37109 ft | 487 kts | 161° |
| 2026-05-08 16:02 | 34.81583 | 23.96178 | 37112 ft | 487 kts | 161° |
| 2026-05-08 16:03 | 34.75517 | 23.99843 | 37109 ft | 487 kts | 161° |
| 2026-05-08 16:03 | 34.69449 | 24.03502 | 37112 ft | 488 kts | 161° |
| 2026-05-08 16:04 | 34.63322 | 24.07188 | 37111 ft | 487 kts | 161° |
| 2026-05-08 16:04 | 34.57266 | 24.10828 | 37109 ft | 487 kts | 161° |
| 2026-05-08 16:05 | 34.51147 | 24.14495 | 37111 ft | 488 kts | 160° |
| 2026-05-08 16:05 | 34.45044 | 24.18154 | 37110 ft | 488 kts | 160° |
| 2026-05-08 16:06 | 34.38962 | 24.21792 | 37107 ft | 488 kts | 160° |
| 2026-05-08 16:06 | 34.32812 | 24.25460 | 37108 ft | 489 kts | 160° |
| 2026-05-08 16:07 | 34.26722 | 24.29094 | 37109 ft | 489 kts | 160° |
| 2026-05-08 16:07 | 34.20577 | 24.32755 | 37111 ft | 489 kts | 160° |
| 2026-05-08 16:08 | 34.14519 | 24.36359 | 37108 ft | 488 kts | 160° |
| 2026-05-08 16:08 | 34.08419 | 24.39980 | 37109 ft | 489 kts | 160° |
| 2026-05-08 16:09 | 34.03376 | 24.43179 | 37110 ft | 492 kts | 155° |
| 2026-05-08 16:09 | 33.96749 | 24.48562 | 37108 ft | 499 kts | 147° |
| 2026-05-08 16:10 | 33.91483 | 24.54009 | 37107 ft | 502 kts | 143° |
| 2026-05-08 16:10 | 33.86223 | 24.59699 | 37105 ft | 502 kts | 143° |
| 2026-05-08 16:11 | 33.81027 | 24.65295 | 37109 ft | 502 kts | 143° |
| 2026-05-08 16:11 | 33.75810 | 24.70892 | 37105 ft | 501 kts | 143° |
| 2026-05-08 16:12 | 33.70562 | 24.76501 | 37109 ft | 501 kts | 143° |
| 2026-05-08 16:12 | 33.65345 | 24.82072 | 37106 ft | 501 kts | 143° |
| 2026-05-08 16:13 | 33.60135 | 24.87627 | 37107 ft | 500 kts | 143° |
| 2026-05-08 16:13 | 33.54898 | 24.93197 | 37108 ft | 500 kts | 143° |
| 2026-05-08 16:14 | 33.49701 | 24.98717 | 37110 ft | 501 kts | 143° |
| 2026-05-08 16:14 | 33.44490 | 25.04243 | 37105 ft | 501 kts | 143° |
| 2026-05-08 16:15 | 33.39222 | 25.09817 | 37112 ft | 502 kts | 143° |
| 2026-05-08 16:15 | 33.34005 | 25.15334 | 37109 ft | 500 kts | 143° |
| 2026-05-08 16:16 | 33.28769 | 25.20856 | 37111 ft | 501 kts | 143° |
| 2026-05-08 16:16 | 33.23508 | 25.26399 | 37108 ft | 501 kts | 143° |
| 2026-05-08 16:17 | 33.19134 | 25.30998 | 37111 ft | 502 kts | 143° |
| 2026-05-08 16:17 | 33.13027 | 25.37408 | 37116 ft | 501 kts | 143° |
| 2026-05-08 16:18 | 33.07767 | 25.42921 | 37108 ft | 502 kts | 143° |
| 2026-05-08 16:18 | 33.02503 | 25.48430 | 37111 ft | 501 kts | 142° |
| 2026-05-08 16:19 | 32.97228 | 25.53940 | 37118 ft | 502 kts | 142° |
| 2026-05-08 16:19 | 32.91950 | 25.59444 | 37120 ft | 502 kts | 142° |
| 2026-05-08 16:20 | 32.86708 | 25.64904 | 37123 ft | 503 kts | 142° |
| 2026-05-08 16:20 | 32.81573 | 25.70242 | 37122 ft | 502 kts | 143° |
| 2026-05-08 16:21 | 32.76270 | 25.75743 | 37137 ft | 503 kts | 143° |
| 2026-05-08 16:21 | 32.70995 | 25.81209 | 37154 ft | 502 kts | 143° |
| 2026-05-08 16:22 | 32.65734 | 25.86651 | 37148 ft | 503 kts | 143° |
| 2026-05-08 16:22 | 32.60431 | 25.92127 | 37144 ft | 503 kts | 143° |
| 2026-05-08 16:23 | 32.55140 | 25.97583 | 37140 ft | 503 kts | 143° |
| 2026-05-08 16:23 | 32.49881 | 26.02997 | 37134 ft | 502 kts | 143° |
| 2026-05-08 16:24 | 32.44607 | 26.08417 | 37140 ft | 502 kts | 142° |
| 2026-05-08 16:24 | 32.39346 | 26.13815 | 37138 ft | 502 kts | 142° |
| 2026-05-08 16:25 | 32.34066 | 26.19225 | 37133 ft | 501 kts | 142° |
| 2026-05-08 16:25 | 32.28756 | 26.24655 | 37134 ft | 501 kts | 142° |
| 2026-05-08 16:26 | 32.23511 | 26.30009 | 37134 ft | 502 kts | 142° |
| 2026-05-08 16:26 | 32.18200 | 26.35426 | 37132 ft | 502 kts | 142° |
| 2026-05-08 16:27 | 32.12920 | 26.40802 | 37132 ft | 502 kts | 142° |
| 2026-05-08 16:27 | 32.07608 | 26.46198 | 37129 ft | 503 kts | 142° |
| 2026-05-08 16:28 | 32.02288 | 26.51597 | 37130 ft | 502 kts | 142° |
| 2026-05-08 16:28 | 31.96993 | 26.56961 | 37128 ft | 502 kts | 142° |
| 2026-05-08 16:29 | 31.91691 | 26.62322 | 37129 ft | 502 kts | 142° |
| 2026-05-08 16:29 | 31.86365 | 26.67706 | 37126 ft | 502 kts | 142° |
| 2026-05-08 16:30 | 31.81053 | 26.73060 | 37126 ft | 502 kts | 142° |
| 2026-05-08 16:30 | 31.75735 | 26.78415 | 37129 ft | 502 kts | 142° |
| 2026-05-08 16:31 | 31.70449 | 26.83733 | 37129 ft | 502 kts | 142° |
| 2026-05-08 16:31 | 31.65099 | 26.89101 | 37128 ft | 501 kts | 142° |
| 2026-05-08 16:32 | 31.59817 | 26.94394 | 37129 ft | 502 kts | 142° |
| 2026-05-08 16:32 | 31.54461 | 26.99759 | 37131 ft | 501 kts | 142° |
| 2026-05-08 16:33 | 31.49138 | 27.05082 | 37133 ft | 501 kts | 142° |
| 2026-05-08 16:33 | 31.43822 | 27.10393 | 37134 ft | 502 kts | 142° |
| 2026-05-08 16:34 | 31.38468 | 27.15729 | 37135 ft | 501 kts | 142° |
| 2026-05-08 16:34 | 31.32904 | 27.20718 | 37140 ft | 499 kts | 149° |
| 2026-05-08 16:35 | 31.26951 | 27.24867 | 37141 ft | 495 kts | 156° |
| 2026-05-08 16:35 | 31.20709 | 27.28320 | 37141 ft | 494 kts | 159° |
| 2026-05-08 16:36 | 31.14501 | 27.31670 | 37143 ft | 494 kts | 159° |
| 2026-05-08 16:36 | 31.08279 | 27.35043 | 37142 ft | 493 kts | 159° |
| 2026-05-08 16:37 | 31.02068 | 27.38411 | 37144 ft | 494 kts | 159° |
| 2026-05-08 16:37 | 30.95887 | 27.41943 | 37142 ft | 496 kts | 154° |
| 2026-05-08 16:38 | 30.90012 | 27.46229 | 37141 ft | 499 kts | 147° |
| 2026-05-08 16:38 | 30.84525 | 27.51196 | 37134 ft | 500 kts | 143° |
| 2026-05-08 16:39 | 30.79101 | 27.56260 | 37129 ft | 501 kts | 143° |
| 2026-05-08 16:39 | 30.73681 | 27.61292 | 37127 ft | 500 kts | 143° |
| 2026-05-08 16:40 | 30.68219 | 27.66344 | 37129 ft | 500 kts | 144° |
| 2026-05-08 16:40 | 30.62791 | 27.71354 | 37125 ft | 501 kts | 144° |
| 2026-05-08 16:41 | 30.57331 | 27.76384 | 37121 ft | 501 kts | 144° |
| 2026-05-08 16:42 | 30.49123 | 27.83930 | 37118 ft | 501 kts | 144° |
| 2026-05-08 16:42 | 30.43677 | 27.88929 | 37108 ft | 500 kts | 144° |
| 2026-05-08 16:43 | 30.38155 | 27.93993 | 37104 ft | 500 kts | 144° |
| 2026-05-08 16:43 | 30.32676 | 27.99007 | 37085 ft | 500 kts | 144° |
| 2026-05-08 16:44 | 30.27245 | 28.03971 | 37094 ft | 500 kts | 144° |
| 2026-05-08 16:44 | 30.21771 | 28.08966 | 37074 ft | 500 kts | 143° |
| 2026-05-08 16:45 | 30.16332 | 28.13927 | 37075 ft | 500 kts | 143° |
| 2026-05-08 16:45 | 30.10867 | 28.18902 | 37077 ft | 500 kts | 143° |
| 2026-05-08 16:46 | 30.05419 | 28.23858 | 37083 ft | 500 kts | 143° |
| 2026-05-08 16:46 | 29.99946 | 28.28829 | 37087 ft | 500 kts | 143° |
| 2026-05-08 16:47 | 29.94485 | 28.33786 | 37088 ft | 500 kts | 143° |
| 2026-05-08 16:47 | 29.89096 | 28.38865 | 37090 ft | 501 kts | 139° |
| 2026-05-08 16:48 | 29.84252 | 28.44471 | 37090 ft | 502 kts | 131° |
| 2026-05-08 16:48 | 29.79894 | 28.50732 | 37092 ft | 502 kts | 127° |
| 2026-05-08 16:49 | 29.75667 | 28.57127 | 37090 ft | 502 kts | 127° |
| 2026-05-08 16:49 | 29.71414 | 28.63509 | 37094 ft | 502 kts | 127° |
| 2026-05-08 16:50 | 29.67131 | 28.69898 | 37091 ft | 502 kts | 128° |
| 2026-05-08 16:50 | 29.62838 | 28.76279 | 37093 ft | 503 kts | 128° |
| 2026-05-08 16:51 | 29.58564 | 28.82609 | 37091 ft | 502 kts | 128° |
| 2026-05-08 16:51 | 29.54292 | 28.88943 | 37089 ft | 502 kts | 128° |
| 2026-05-08 16:52 | 29.50021 | 28.95278 | 37094 ft | 502 kts | 128° |
| 2026-05-08 16:52 | 29.45745 | 29.01570 | 37090 ft | 503 kts | 129° |
| 2026-05-08 16:53 | 29.38435 | 29.10232 | 37091 ft | 502 kts | 140° |
| 2026-05-08 16:53 | 29.32944 | 29.15181 | 37088 ft | 502 kts | 144° |
| 2026-05-08 16:54 | 29.27401 | 29.19964 | 37083 ft | 501 kts | 144° |
| 2026-05-08 16:54 | 29.21832 | 29.24791 | 37084 ft | 501 kts | 144° |
| 2026-05-08 16:55 | 29.16277 | 29.29611 | 37078 ft | 501 kts | 143° |
| 2026-05-08 16:55 | 29.10698 | 29.34418 | 37074 ft | 501 kts | 144° |
| 2026-05-08 16:56 | 29.05063 | 29.39091 | 37074 ft | 501 kts | 145° |
| 2026-05-08 16:56 | 28.99432 | 29.43745 | 37064 ft | 501 kts | 144° |
| 2026-05-08 16:57 | 28.93769 | 29.48436 | 37063 ft | 501 kts | 144° |
| 2026-05-08 16:57 | 28.88138 | 29.53102 | 37058 ft | 500 kts | 144° |
| 2026-05-08 16:58 | 28.82588 | 29.57698 | 37058 ft | 500 kts | 144° |
| 2026-05-08 16:58 | 28.76957 | 29.62356 | 37049 ft | 500 kts | 144° |
| 2026-05-08 16:59 | 28.71319 | 29.67014 | 37048 ft | 500 kts | 145° |
| 2026-05-08 16:59 | 28.65684 | 29.71665 | 37044 ft | 500 kts | 145° |
| 2026-05-08 17:00 | 28.60035 | 29.76319 | 37039 ft | 499 kts | 145° |
| 2026-05-08 17:00 | 28.54438 | 29.80922 | 37033 ft | 500 kts | 145° |
| 2026-05-08 17:01 | 28.48813 | 29.85545 | 37033 ft | 499 kts | 145° |
| 2026-05-08 17:01 | 28.43144 | 29.90196 | 37029 ft | 500 kts | 145° |
| 2026-05-08 17:02 | 28.37528 | 29.94798 | 37024 ft | 500 kts | 145° |
| 2026-05-08 17:02 | 28.31895 | 29.99408 | 37018 ft | 500 kts | 144° |
| 2026-05-08 17:03 | 28.26226 | 30.04041 | 37018 ft | 500 kts | 145° |
| 2026-05-08 17:03 | 28.20602 | 30.08633 | 37009 ft | 500 kts | 145° |
| 2026-05-08 17:04 | 28.14935 | 30.13252 | 37010 ft | 500 kts | 144° |
| 2026-05-08 17:04 | 28.09287 | 30.17848 | 37004 ft | 500 kts | 145° |
| 2026-05-08 17:05 | 28.03654 | 30.22428 | 37005 ft | 500 kts | 144° |
| 2026-05-08 17:05 | 27.98000 | 30.27018 | 37004 ft | 500 kts | 144° |
| 2026-05-08 17:06 | 27.92349 | 30.31600 | 36999 ft | 500 kts | 144° |
| 2026-05-08 17:06 | 27.86732 | 30.36149 | 36996 ft | 495 kts | 144° |
| 2026-05-08 17:07 | 27.81136 | 30.40675 | 36993 ft | 494 kts | 144° |
| 2026-05-08 17:07 | 27.75557 | 30.45182 | 37000 ft | 494 kts | 144° |
| 2026-05-08 17:08 | 27.69971 | 30.49689 | 37002 ft | 494 kts | 144° |
| 2026-05-08 17:08 | 27.64372 | 30.54198 | 36994 ft | 493 kts | 144° |
| 2026-05-08 17:09 | 27.58784 | 30.58694 | 36988 ft | 494 kts | 144° |
| 2026-05-08 17:09 | 27.53200 | 30.63183 | 36985 ft | 494 kts | 144° |
| 2026-05-08 17:10 | 27.47594 | 30.67682 | 36979 ft | 494 kts | 145° |
| 2026-05-08 17:10 | 27.42031 | 30.72142 | 36972 ft | 493 kts | 145° |
| 2026-05-08 17:11 | 27.36432 | 30.76627 | 36978 ft | 492 kts | 145° |
| 2026-05-08 17:11 | 27.30858 | 30.81085 | 36978 ft | 493 kts | 144° |
| 2026-05-08 17:12 | 27.25258 | 30.85560 | 36985 ft | 492 kts | 144° |
| 2026-05-08 17:12 | 27.19671 | 30.90022 | 36977 ft | 492 kts | 144° |
| 2026-05-08 17:13 | 27.14117 | 30.94455 | 36990 ft | 492 kts | 144° |
| 2026-05-08 17:13 | 27.08602 | 30.98864 | 36995 ft | 492 kts | 143° |
| 2026-05-08 17:14 | 27.03246 | 31.03838 | 36997 ft | 492 kts | 136° |
| 2026-05-08 17:14 | 26.98545 | 31.09375 | 36992 ft | 491 kts | 129° |
| 2026-05-08 17:15 | 26.94257 | 31.15287 | 36987 ft | 491 kts | 128° |
| 2026-05-08 17:15 | 26.89951 | 31.21256 | 36975 ft | 491 kts | 128° |
| 2026-05-08 17:16 | 26.85754 | 31.27041 | 36974 ft | 491 kts | 128° |
| 2026-05-08 17:16 | 26.81438 | 31.32971 | 36969 ft | 491 kts | 128° |
| 2026-05-08 17:17 | 26.77105 | 31.38912 | 36967 ft | 491 kts | 128° |
| 2026-05-08 17:17 | 26.72815 | 31.44789 | 36957 ft | 491 kts | 128° |
| 2026-05-08 17:18 | 26.68487 | 31.50706 | 36951 ft | 491 kts | 128° |
| 2026-05-08 17:18 | 26.64135 | 31.56650 | 36953 ft | 492 kts | 128° |
| 2026-05-08 17:19 | 26.59796 | 31.62568 | 36954 ft | 491 kts | 128° |
| 2026-05-08 17:19 | 26.55474 | 31.68455 | 36947 ft | 491 kts | 128° |
| 2026-05-08 17:20 | 26.51128 | 31.74366 | 36935 ft | 492 kts | 128° |
| 2026-05-08 17:20 | 26.46792 | 31.80256 | 36930 ft | 492 kts | 128° |
| 2026-05-08 17:21 | 26.42447 | 31.86151 | 36932 ft | 492 kts | 128° |
| 2026-05-08 17:21 | 26.38114 | 31.92022 | 36927 ft | 492 kts | 128° |
| 2026-05-08 17:22 | 26.33772 | 31.97899 | 36921 ft | 491 kts | 128° |
| 2026-05-08 17:22 | 26.29418 | 32.03783 | 36918 ft | 492 kts | 128° |
| 2026-05-08 17:23 | 26.25079 | 32.09641 | 36916 ft | 491 kts | 128° |
| 2026-05-08 17:23 | 26.20724 | 32.15511 | 36924 ft | 491 kts | 128° |
| 2026-05-08 17:24 | 26.16390 | 32.21347 | 36930 ft | 492 kts | 128° |
| 2026-05-08 17:24 | 26.12033 | 32.27205 | 36925 ft | 492 kts | 128° |
| 2026-05-08 17:25 | 26.07666 | 32.33069 | 36922 ft | 491 kts | 129° |
| 2026-05-08 17:25 | 26.03316 | 32.38905 | 36913 ft | 492 kts | 128° |
| 2026-05-08 17:26 | 25.98935 | 32.44774 | 36903 ft | 492 kts | 128° |
| 2026-05-08 17:26 | 25.94587 | 32.50593 | 36902 ft | 493 kts | 128° |
| 2026-05-08 17:27 | 25.90213 | 32.56439 | 36897 ft | 492 kts | 128° |
| 2026-05-08 17:27 | 25.85831 | 32.62296 | 36894 ft | 492 kts | 128° |
| 2026-05-08 17:28 | 25.81422 | 32.68180 | 36892 ft | 492 kts | 129° |
| 2026-05-08 17:28 | 25.77043 | 32.74014 | 36896 ft | 492 kts | 129° |
| 2026-05-08 17:29 | 25.72951 | 32.80066 | 36893 ft | 491 kts | 123° |
| 2026-05-08 17:29 | 25.69184 | 32.86372 | 36895 ft | 491 kts | 122° |
| 2026-05-08 17:30 | 25.65441 | 32.92668 | 36905 ft | 491 kts | 122° |
| 2026-05-08 17:30 | 25.61673 | 32.98985 | 36912 ft | 491 kts | 122° |
| 2026-05-08 17:31 | 25.57915 | 33.05269 | 36913 ft | 490 kts | 122° |
| 2026-05-08 17:31 | 25.54146 | 33.11562 | 36920 ft | 490 kts | 122° |
| 2026-05-08 17:32 | 25.50372 | 33.17853 | 36918 ft | 490 kts | 122° |
| 2026-05-08 17:32 | 25.46608 | 33.24119 | 36919 ft | 490 kts | 122° |
| 2026-05-08 17:33 | 25.42850 | 33.30370 | 36923 ft | 490 kts | 122° |
| 2026-05-08 17:33 | 25.39086 | 33.36626 | 36932 ft | 490 kts | 122° |
| 2026-05-08 17:34 | 25.35303 | 33.42911 | 36933 ft | 490 kts | 122° |
| 2026-05-08 17:34 | 25.31550 | 33.49131 | 36934 ft | 489 kts | 122° |
| 2026-05-08 17:35 | 25.27758 | 33.55374 | 36939 ft | 489 kts | 122° |
| 2026-05-08 17:35 | 25.23957 | 33.61631 | 36943 ft | 489 kts | 122° |
| 2026-05-08 17:36 | 25.20179 | 33.67856 | 36951 ft | 489 kts | 122° |
| 2026-05-08 17:36 | 25.16384 | 33.74105 | 36958 ft | 489 kts | 122° |
| 2026-05-08 17:37 | 25.12624 | 33.80291 | 36963 ft | 489 kts | 122° |
| 2026-05-08 17:37 | 25.08840 | 33.86509 | 36967 ft | 489 kts | 122° |
| 2026-05-08 17:38 | 25.05030 | 33.92761 | 36971 ft | 489 kts | 122° |
| 2026-05-08 17:38 | 25.01254 | 33.98949 | 36969 ft | 490 kts | 122° |
| 2026-05-08 17:39 | 24.97454 | 34.05169 | 36964 ft | 489 kts | 122° |
| 2026-05-08 17:39 | 24.93642 | 34.11397 | 36963 ft | 489 kts | 122° |
| 2026-05-08 17:40 | 24.89856 | 34.17578 | 36958 ft | 489 kts | 122° |
| 2026-05-08 17:40 | 24.86041 | 34.23799 | 36962 ft | 489 kts | 122° |
| 2026-05-08 17:41 | 24.82235 | 34.29999 | 36965 ft | 488 kts | 122° |
| 2026-05-08 17:41 | 24.78398 | 34.36239 | 36967 ft | 493 kts | 122° |
| 2026-05-08 17:42 | 24.74557 | 34.42477 | 36970 ft | 494 kts | 122° |
| 2026-05-08 17:42 | 24.70699 | 34.48734 | 36970 ft | 494 kts | 122° |
| 2026-05-08 17:43 | 24.66862 | 34.54948 | 36966 ft | 493 kts | 122° |
| 2026-05-08 17:43 | 24.62995 | 34.61205 | 36959 ft | 494 kts | 122° |
| 2026-05-08 17:44 | 24.59134 | 34.67445 | 36954 ft | 493 kts | 123° |
| 2026-05-08 17:44 | 24.55261 | 34.73694 | 36951 ft | 494 kts | 123° |
| 2026-05-08 17:45 | 24.51400 | 34.79915 | 36949 ft | 494 kts | 123° |
| 2026-05-08 17:45 | 24.47550 | 34.86112 | 36944 ft | 493 kts | 123° |
| 2026-05-08 17:46 | 24.43683 | 34.92330 | 36943 ft | 493 kts | 123° |
| 2026-05-08 17:46 | 24.39823 | 34.98527 | 36951 ft | 493 kts | 123° |
| 2026-05-08 17:47 | 24.35958 | 35.04727 | 36959 ft | 494 kts | 123° |
| 2026-05-08 17:47 | 24.32721 | 35.09913 | 36956 ft | 493 kts | 123° |
| 2026-05-08 17:48 | 24.28180 | 35.17176 | 36940 ft | 493 kts | 123° |
| 2026-05-08 17:48 | 24.24290 | 35.23392 | 36929 ft | 492 kts | 123° |
| 2026-05-08 17:49 | 24.20391 | 35.29613 | 36913 ft | 492 kts | 123° |
| 2026-05-08 17:49 | 24.16509 | 35.35803 | 36904 ft | 492 kts | 123° |
| 2026-05-08 17:50 | 24.12623 | 35.41992 | 36902 ft | 492 kts | 123° |
| 2026-05-08 17:50 | 24.08721 | 35.48196 | 36900 ft | 493 kts | 123° |
| 2026-05-08 17:51 | 24.04824 | 35.54393 | 36893 ft | 492 kts | 123° |
| 2026-05-08 17:51 | 24.00956 | 35.60539 | 36893 ft | 492 kts | 123° |
| 2026-05-08 17:52 | 23.97040 | 35.66748 | 36885 ft | 491 kts | 123° |
| 2026-05-08 17:53 | 23.91164 | 35.75990 | 36887 ft | 491 kts | 124° |
| 2026-05-08 17:53 | 23.87260 | 35.82131 | 36881 ft | 492 kts | 124° |
| 2026-05-08 17:54 | 23.83335 | 35.88312 | 36885 ft | 493 kts | 124° |
| 2026-05-08 17:54 | 23.79430 | 35.94454 | 36884 ft | 492 kts | 124° |
| 2026-05-08 17:55 | 23.75486 | 36.00652 | 36881 ft | 492 kts | 124° |
| 2026-05-08 17:55 | 23.71567 | 36.06799 | 36878 ft | 492 kts | 124° |
| 2026-05-08 17:56 | 23.67622 | 36.12982 | 36874 ft | 493 kts | 124° |
| 2026-05-08 17:56 | 23.63709 | 36.19111 | 36878 ft | 494 kts | 125° |
| 2026-05-08 17:57 | 23.59752 | 36.25294 | 36872 ft | 494 kts | 125° |
| 2026-05-08 17:57 | 23.55821 | 36.31435 | 36868 ft | 493 kts | 125° |
| 2026-05-08 17:58 | 23.51904 | 36.37546 | 36860 ft | 493 kts | 126° |
| 2026-05-08 17:58 | 23.47959 | 36.43692 | 36861 ft | 492 kts | 126° |
| 2026-05-08 17:59 | 23.43992 | 36.49863 | 36862 ft | 493 kts | 126° |
| 2026-05-08 17:59 | 23.40053 | 36.55983 | 36859 ft | 494 kts | 126° |
| 2026-05-08 18:00 | 23.36110 | 36.62110 | 36853 ft | 493 kts | 127° |
| 2026-05-08 18:00 | 23.30190 | 36.71283 | 36849 ft | 492 kts | 127° |
| 2026-05-08 18:01 | 23.26259 | 36.77365 | 36852 ft | 492 kts | 127° |
| 2026-05-08 18:01 | 23.22338 | 36.83432 | 36849 ft | 491 kts | 127° |
| 2026-05-08 18:02 | 23.19051 | 36.88509 | 36844 ft | 490 kts | 127° |
| 2026-05-08 18:02 | 23.14481 | 36.95566 | 36858 ft | 490 kts | 128° |
| 2026-05-08 18:03 | 23.10556 | 37.01620 | 36865 ft | 490 kts | 128° |
| 2026-05-08 18:03 | 23.06627 | 37.07673 | 36858 ft | 489 kts | 128° |
| 2026-05-08 18:04 | 23.02705 | 37.13710 | 36858 ft | 489 kts | 129° |
| 2026-05-08 18:04 | 22.98750 | 37.19741 | 36857 ft | 488 kts | 129° |
| 2026-05-08 18:05 | 22.94777 | 37.25788 | 36847 ft | 489 kts | 129° |
| 2026-05-08 18:05 | 22.90820 | 37.31818 | 36847 ft | 489 kts | 129° |
| 2026-05-08 18:06 | 22.86866 | 37.37844 | 36851 ft | 489 kts | 129° |
| 2026-05-08 18:06 | 22.82919 | 37.43853 | 36846 ft | 489 kts | 129° |
| 2026-05-08 18:07 | 22.78971 | 37.49867 | 36840 ft | 488 kts | 130° |
| 2026-05-08 18:07 | 22.75045 | 37.55831 | 36838 ft | 489 kts | 130° |
| 2026-05-08 18:08 | 22.71075 | 37.61848 | 36837 ft | 489 kts | 130° |
| 2026-05-08 18:08 | 22.67123 | 37.67844 | 36830 ft | 488 kts | 130° |
| 2026-05-08 18:09 | 22.63168 | 37.73869 | 36832 ft | 489 kts | 130° |
| 2026-05-08 18:09 | 22.59223 | 37.79879 | 36835 ft | 490 kts | 131° |
| 2026-05-08 18:10 | 22.55277 | 37.85888 | 36839 ft | 487 kts | 131° |
| 2026-05-08 18:10 | 22.51345 | 37.91866 | 36837 ft | 487 kts | 131° |
| 2026-05-08 18:11 | 22.47412 | 37.97842 | 36839 ft | 487 kts | 131° |
| 2026-05-08 18:11 | 22.43472 | 38.03820 | 36844 ft | 488 kts | 131° |
| 2026-05-08 18:12 | 22.39542 | 38.09787 | 36828 ft | 484 kts | 131° |
| 2026-05-08 18:12 | 22.35605 | 38.15757 | 36829 ft | 484 kts | 132° |
| 2026-05-08 18:13 | 22.31717 | 38.21644 | 36834 ft | 485 kts | 132° |
| 2026-05-08 18:13 | 22.27778 | 38.27579 | 36838 ft | 484 kts | 132° |
| 2026-05-08 18:14 | 22.23873 | 38.33448 | 36842 ft | 481 kts | 132° |
| 2026-05-08 18:14 | 22.19966 | 38.39324 | 36836 ft | 482 kts | 133° |
| 2026-05-08 18:15 | 22.16054 | 38.45209 | 36841 ft | 481 kts | 133° |
| 2026-05-08 18:15 | 22.12154 | 38.51069 | 36839 ft | 481 kts | 133° |
| 2026-05-08 18:16 | 22.08225 | 38.56970 | 36838 ft | 482 kts | 133° |
| 2026-05-08 18:16 | 22.04352 | 38.62780 | 36833 ft | 479 kts | 133° |
| 2026-05-08 18:17 | 22.00437 | 38.68648 | 36825 ft | 478 kts | 134° |
| 2026-05-08 18:17 | 21.96558 | 38.74458 | 36826 ft | 476 kts | 134° |
| 2026-05-08 18:18 | 21.92691 | 38.80247 | 36830 ft | 474 kts | 134° |
| 2026-05-08 18:18 | 21.88831 | 38.86015 | 36838 ft | 474 kts | 134° |
| 2026-05-08 18:19 | 21.84959 | 38.91798 | 36835 ft | 474 kts | 134° |
| 2026-05-08 18:19 | 21.81105 | 38.97560 | 36836 ft | 470 kts | 134° |
| 2026-05-08 18:20 | 21.77240 | 39.03198 | 36828 ft | 465 kts | 140° |
| 2026-05-08 18:20 | 21.75014 | 39.05645 | 36833 ft | 454 kts | 148° |
| 2026-05-08 18:20 | 21.72542 | 39.07692 | 36836 ft | 444 kts | 155° |
| 2026-05-08 18:21 | 21.67083 | 39.10576 | 36836 ft | 429 kts | 169° |
| 2026-05-08 18:21 | 21.61322 | 39.11838 | 36837 ft | 414 kts | 182° |
| 2026-05-08 18:22 | 21.55606 | 39.11843 | 36839 ft | 412 kts | 187° |
| 2026-05-08 18:22 | 21.49856 | 39.11705 | 36832 ft | 413 kts | 187° |
| 2026-05-08 18:23 | 21.44092 | 39.11561 | 36832 ft | 412 kts | 187° |
| 2026-05-08 18:23 | 21.38359 | 39.11415 | 36832 ft | 413 kts | 187° |
| 2026-05-08 18:24 | 21.32570 | 39.11271 | 36831 ft | 412 kts | 187° |
| 2026-05-08 18:24 | 21.26854 | 39.11126 | 36828 ft | 413 kts | 187° |
| 2026-05-08 18:25 | 21.21078 | 39.10981 | 36825 ft | 413 kts | 187° |
| 2026-05-08 18:25 | 21.15334 | 39.10838 | 36825 ft | 411 kts | 187° |
| 2026-05-08 18:26 | 21.09611 | 39.10692 | 36825 ft | 413 kts | 187° |
| 2026-05-08 18:26 | 21.03864 | 39.10547 | 36823 ft | 413 kts | 187° |
| 2026-05-08 18:27 | 20.99048 | 39.10428 | 36820 ft | 413 kts | 187° |
| 2026-05-08 18:27 | 20.92324 | 39.10260 | 36824 ft | 413 kts | 187° |
| 2026-05-08 18:28 | 20.86544 | 39.10117 | 36816 ft | 414 kts | 187° |
| 2026-05-08 18:28 | 20.80758 | 39.09976 | 36809 ft | 414 kts | 187° |
| 2026-05-08 18:29 | 20.74984 | 39.09833 | 36803 ft | 414 kts | 187° |
| 2026-05-08 18:29 | 20.69228 | 39.09689 | 36811 ft | 414 kts | 187° |
| 2026-05-08 18:30 | 20.63428 | 39.09531 | 36811 ft | 413 kts | 187° |
| 2026-05-08 18:30 | 20.57661 | 39.09378 | 36813 ft | 413 kts | 187° |
| 2026-05-08 18:31 | 20.51909 | 39.09233 | 36807 ft | 414 kts | 187° |
| 2026-05-08 18:31 | 20.46142 | 39.09088 | 36810 ft | 415 kts | 187° |
| 2026-05-08 18:32 | 20.40322 | 39.08941 | 36804 ft | 414 kts | 187° |
| 2026-05-08 18:32 | 20.34576 | 39.08798 | 36811 ft | 415 kts | 187° |
| 2026-05-08 18:33 | 20.28785 | 39.08655 | 36821 ft | 415 kts | 187° |
| 2026-05-08 18:33 | 20.22986 | 39.08508 | 36816 ft | 416 kts | 187° |
| 2026-05-08 18:34 | 20.17211 | 39.08363 | 36815 ft | 416 kts | 187° |
| 2026-05-08 18:34 | 20.11381 | 39.08216 | 36820 ft | 417 kts | 187° |
| 2026-05-08 18:35 | 20.05584 | 39.08072 | 36817 ft | 415 kts | 187° |
| 2026-05-08 18:35 | 19.99799 | 39.07929 | 36822 ft | 416 kts | 187° |
| 2026-05-08 18:36 | 19.94023 | 39.07784 | 36817 ft | 414 kts | 187° |
| 2026-05-08 18:36 | 19.88193 | 39.07638 | 36821 ft | 416 kts | 187° |
| 2026-05-08 18:37 | 19.82360 | 39.07492 | 36815 ft | 415 kts | 187° |
| 2026-05-08 18:37 | 19.76584 | 39.07349 | 36819 ft | 416 kts | 187° |
| 2026-05-08 18:38 | 19.70746 | 39.07203 | 36814 ft | 416 kts | 187° |
| 2026-05-08 18:38 | 19.64925 | 39.07060 | 36817 ft | 417 kts | 187° |
| 2026-05-08 18:39 | 19.59074 | 39.06915 | 36816 ft | 418 kts | 187° |
| 2026-05-08 18:39 | 19.53213 | 39.06773 | 36812 ft | 418 kts | 187° |
| 2026-05-08 18:40 | 19.47379 | 39.06628 | 36814 ft | 418 kts | 187° |
| 2026-05-08 18:40 | 19.41569 | 39.06484 | 36814 ft | 418 kts | 186° |
| 2026-05-08 18:41 | 19.35699 | 39.06341 | 36813 ft | 418 kts | 186° |
| 2026-05-08 18:41 | 19.29886 | 39.06197 | 36801 ft | 417 kts | 187° |
| 2026-05-08 18:42 | 19.24077 | 39.06058 | 36800 ft | 417 kts | 186° |
| 2026-05-08 18:42 | 19.18227 | 39.05920 | 36798 ft | 417 kts | 186° |
| 2026-05-08 18:43 | 19.12368 | 39.05775 | 36803 ft | 418 kts | 187° |
| 2026-05-08 18:43 | 19.06546 | 39.05467 | 36808 ft | 417 kts | 188° |
| 2026-05-08 18:44 | 19.00704 | 39.05117 | 36813 ft | 416 kts | 188° |
| 2026-05-08 18:44 | 18.94902 | 39.04785 | 36818 ft | 418 kts | 188° |
| 2026-05-08 18:45 | 18.89033 | 39.04453 | 36822 ft | 418 kts | 188° |
| 2026-05-08 18:45 | 18.83197 | 39.04127 | 36819 ft | 418 kts | 188° |
| 2026-05-08 18:46 | 18.77366 | 39.03805 | 36819 ft | 418 kts | 188° |
| 2026-05-08 18:46 | 18.71552 | 39.03481 | 36820 ft | 417 kts | 188° |
| 2026-05-08 18:47 | 18.65718 | 39.03159 | 36821 ft | 418 kts | 188° |
| 2026-05-08 18:47 | 18.59865 | 39.02833 | 36820 ft | 418 kts | 188° |
| 2026-05-08 18:48 | 18.54012 | 39.02510 | 36821 ft | 419 kts | 187° |
| 2026-05-08 18:48 | 18.48187 | 39.02189 | 36820 ft | 419 kts | 188° |
| 2026-05-08 18:49 | 18.42354 | 39.01868 | 36821 ft | 420 kts | 188° |
| 2026-05-08 18:49 | 18.36458 | 39.01545 | 36822 ft | 420 kts | 188° |
| 2026-05-08 18:50 | 18.30605 | 39.01225 | 36821 ft | 420 kts | 188° |
| 2026-05-08 18:50 | 18.24737 | 39.00907 | 36823 ft | 422 kts | 188° |
| 2026-05-08 18:51 | 18.18805 | 39.00586 | 36821 ft | 422 kts | 188° |
| 2026-05-08 18:51 | 18.12897 | 39.00307 | 36822 ft | 424 kts | 187° |
| 2026-05-08 18:52 | 18.06990 | 39.00094 | 36822 ft | 424 kts | 187° |
| 2026-05-08 18:52 | 18.01051 | 38.99883 | 36820 ft | 424 kts | 187° |
| 2026-05-08 18:53 | 17.95124 | 38.99674 | 36820 ft | 424 kts | 187° |
| 2026-05-08 18:53 | 17.89206 | 38.99459 | 36823 ft | 424 kts | 187° |
| 2026-05-08 18:54 | 17.83251 | 38.99247 | 36821 ft | 424 kts | 187° |
| 2026-05-08 18:54 | 17.77347 | 38.99038 | 36819 ft | 424 kts | 187° |
| 2026-05-08 18:55 | 17.68442 | 38.98722 | 36813 ft | 424 kts | 187° |
| 2026-05-08 18:56 | 17.62502 | 38.98514 | 36811 ft | 424 kts | 187° |
| 2026-05-08 18:56 | 17.56582 | 38.98305 | 36809 ft | 425 kts | 187° |
| 2026-05-08 18:57 | 17.50630 | 38.98273 | 36812 ft | 429 kts | 181° |
| 2026-05-08 18:57 | 17.44684 | 38.99383 | 36818 ft | 439 kts | 170° |
| 2026-05-08 18:58 | 17.38950 | 39.01788 | 36815 ft | 449 kts | 159° |
| 2026-05-08 18:58 | 17.33717 | 39.05448 | 36822 ft | 460 kts | 148° |
| 2026-05-08 18:59 | 17.28735 | 39.09722 | 36819 ft | 461 kts | 147° |
| 2026-05-08 18:59 | 17.23807 | 39.13989 | 36818 ft | 460 kts | 147° |
| 2026-05-08 19:00 | 17.18880 | 39.18243 | 36820 ft | 459 kts | 147° |
| 2026-05-08 19:00 | 17.13957 | 39.22485 | 36821 ft | 460 kts | 147° |
| 2026-05-08 19:01 | 17.09021 | 39.26730 | 36816 ft | 459 kts | 147° |
| 2026-05-08 19:01 | 17.04061 | 39.30996 | 36819 ft | 459 kts | 147° |
| 2026-05-08 19:02 | 16.99144 | 39.35221 | 36819 ft | 459 kts | 147° |
| 2026-05-08 19:02 | 16.94193 | 39.39468 | 36817 ft | 461 kts | 147° |
| 2026-05-08 19:03 | 16.89244 | 39.43715 | 36818 ft | 462 kts | 147° |
| 2026-05-08 19:03 | 16.84248 | 39.47999 | 36825 ft | 463 kts | 147° |
| 2026-05-08 19:04 | 16.79271 | 39.52264 | 36819 ft | 462 kts | 147° |
| 2026-05-08 19:04 | 16.74303 | 39.56518 | 36823 ft | 463 kts | 147° |
| 2026-05-08 19:05 | 16.69340 | 39.60763 | 36818 ft | 462 kts | 147° |
| 2026-05-08 19:05 | 16.64360 | 39.65020 | 36821 ft | 463 kts | 147° |
| 2026-05-08 19:06 | 16.59378 | 39.69278 | 36819 ft | 463 kts | 146° |
| 2026-05-08 19:06 | 16.54392 | 39.73534 | 36821 ft | 463 kts | 147° |
| 2026-05-08 19:07 | 16.49406 | 39.77787 | 36817 ft | 463 kts | 146° |
| 2026-05-08 19:07 | 16.44406 | 39.82051 | 36814 ft | 464 kts | 146° |
| 2026-05-08 19:08 | 16.39403 | 39.86312 | 36811 ft | 464 kts | 146° |
| 2026-05-08 19:08 | 16.34436 | 39.90540 | 36814 ft | 464 kts | 146° |
| 2026-05-08 19:09 | 16.29432 | 39.94801 | 36808 ft | 464 kts | 146° |
| 2026-05-08 19:09 | 16.24428 | 39.99056 | 36801 ft | 463 kts | 146° |
| 2026-05-08 19:10 | 16.19441 | 40.03292 | 36797 ft | 464 kts | 146° |
| 2026-05-08 19:10 | 16.14459 | 40.07525 | 36806 ft | 463 kts | 146° |
| 2026-05-08 19:11 | 16.09459 | 40.11768 | 36816 ft | 464 kts | 146° |
| 2026-05-08 19:11 | 16.04537 | 40.15940 | 36820 ft | 464 kts | 146° |
| 2026-05-08 19:12 | 15.99531 | 40.20184 | 36817 ft | 464 kts | 146° |
| 2026-05-08 19:12 | 15.94538 | 40.24410 | 36820 ft | 464 kts | 145° |
| 2026-05-08 19:13 | 15.89523 | 40.28656 | 36820 ft | 464 kts | 145° |
| 2026-05-08 19:13 | 15.84594 | 40.32826 | 36819 ft | 464 kts | 145° |
| 2026-05-08 19:14 | 15.79570 | 40.37073 | 36819 ft | 463 kts | 145° |
| 2026-05-08 19:14 | 15.74584 | 40.41286 | 36819 ft | 464 kts | 145° |
| 2026-05-08 19:15 | 15.69569 | 40.45520 | 36822 ft | 464 kts | 145° |
| 2026-05-08 19:15 | 15.64572 | 40.49736 | 36819 ft | 464 kts | 145° |
| 2026-05-08 19:16 | 15.59562 | 40.53961 | 36818 ft | 463 kts | 145° |
| 2026-05-08 19:16 | 15.54576 | 40.58161 | 36818 ft | 463 kts | 145° |
| 2026-05-08 19:17 | 15.49574 | 40.62373 | 36820 ft | 462 kts | 145° |
| 2026-05-08 19:17 | 15.44560 | 40.66593 | 36817 ft | 462 kts | 145° |
| 2026-05-08 19:18 | 15.39581 | 40.70779 | 36819 ft | 462 kts | 145° |
| 2026-05-08 19:18 | 15.34588 | 40.74979 | 36819 ft | 462 kts | 145° |
| 2026-05-08 19:19 | 15.29565 | 40.79198 | 36820 ft | 462 kts | 145° |
| 2026-05-08 19:19 | 15.24568 | 40.83396 | 36821 ft | 463 kts | 145° |
| 2026-05-08 19:20 | 15.19566 | 40.87595 | 36822 ft | 463 kts | 144° |
| 2026-05-08 19:20 | 15.14565 | 40.91793 | 36821 ft | 463 kts | 145° |
| 2026-05-08 19:21 | 15.09553 | 40.96002 | 36819 ft | 463 kts | 144° |
| 2026-05-08 19:21 | 15.04572 | 41.00181 | 36820 ft | 462 kts | 144° |
| 2026-05-08 19:22 | 14.99581 | 41.04343 | 36820 ft | 461 kts | 144° |
| 2026-05-08 19:22 | 14.94563 | 41.08506 | 36820 ft | 462 kts | 144° |
| 2026-05-08 19:23 | 14.89558 | 41.12673 | 36825 ft | 462 kts | 144° |
| 2026-05-08 19:23 | 14.84523 | 41.16870 | 36822 ft | 462 kts | 144° |
| 2026-05-08 19:24 | 14.79464 | 41.21086 | 36823 ft | 463 kts | 144° |
| 2026-05-08 19:24 | 14.74439 | 41.25270 | 36822 ft | 463 kts | 144° |
| 2026-05-08 19:25 | 14.69424 | 41.29445 | 36825 ft | 463 kts | 144° |
| 2026-05-08 19:25 | 14.64405 | 41.33620 | 36827 ft | 463 kts | 144° |
| 2026-05-08 19:26 | 14.59390 | 41.37790 | 36827 ft | 463 kts | 144° |
| 2026-05-08 19:26 | 14.54346 | 41.41981 | 36829 ft | 463 kts | 144° |
| 2026-05-08 19:27 | 14.49320 | 41.46154 | 36829 ft | 463 kts | 144° |
| 2026-05-08 19:27 | 14.44303 | 41.50319 | 36829 ft | 463 kts | 144° |
| 2026-05-08 19:28 | 14.39261 | 41.54500 | 36827 ft | 463 kts | 144° |
| 2026-05-08 19:28 | 14.34242 | 41.58661 | 36824 ft | 464 kts | 144° |
| 2026-05-08 19:29 | 14.29194 | 41.62844 | 36822 ft | 464 kts | 144° |
| 2026-05-08 19:29 | 14.24167 | 41.67006 | 36821 ft | 465 kts | 144° |
| 2026-05-08 19:30 | 14.19177 | 41.71135 | 36821 ft | 465 kts | 144° |
| 2026-05-08 19:30 | 14.14098 | 41.75337 | 36822 ft | 465 kts | 144° |
| 2026-05-08 19:31 | 14.09047 | 41.79514 | 36821 ft | 465 kts | 144° |
| 2026-05-08 19:31 | 14.03994 | 41.83687 | 36823 ft | 466 kts | 144° |
| 2026-05-08 19:32 | 13.98952 | 41.87850 | 36824 ft | 465 kts | 144° |
| 2026-05-08 19:32 | 13.93892 | 41.92027 | 36822 ft | 465 kts | 144° |
| 2026-05-08 19:33 | 13.88846 | 41.96189 | 36823 ft | 465 kts | 144° |
| 2026-05-08 19:33 | 13.83870 | 42.00296 | 36824 ft | 466 kts | 144° |
| 2026-05-08 19:34 | 13.78815 | 42.04465 | 36820 ft | 467 kts | 144° |
| 2026-05-08 19:34 | 13.73733 | 42.08656 | 36816 ft | 468 kts | 144° |
| 2026-05-08 19:35 | 13.68653 | 42.12847 | 36813 ft | 468 kts | 144° |
| 2026-05-08 19:35 | 13.63570 | 42.17017 | 36816 ft | 468 kts | 144° |
| 2026-05-08 19:36 | 13.58437 | 42.21179 | 36819 ft | 467 kts | 144° |
| 2026-05-08 19:36 | 13.53334 | 42.25323 | 36818 ft | 467 kts | 144° |
| 2026-05-08 19:37 | 13.48258 | 42.29454 | 36819 ft | 468 kts | 144° |
| 2026-05-08 19:37 | 13.43116 | 42.33642 | 36821 ft | 468 kts | 144° |
| 2026-05-08 19:38 | 13.38026 | 42.37785 | 36821 ft | 468 kts | 144° |
| 2026-05-08 19:38 | 13.32917 | 42.41943 | 36820 ft | 468 kts | 144° |
| 2026-05-08 19:39 | 13.27782 | 42.46121 | 36826 ft | 468 kts | 144° |
| 2026-05-08 19:39 | 13.22697 | 42.50263 | 36831 ft | 469 kts | 144° |
| 2026-05-08 19:40 | 13.17569 | 42.54434 | 36842 ft | 468 kts | 144° |
| 2026-05-08 19:40 | 13.12386 | 42.58488 | 36850 ft | 467 kts | 147° |
| 2026-05-08 19:41 | 13.06903 | 42.61971 | 36855 ft | 465 kts | 153° |
| 2026-05-08 19:41 | 13.01060 | 42.64856 | 36855 ft | 463 kts | 159° |
| 2026-05-08 19:42 | 12.94943 | 42.67108 | 36855 ft | 461 kts | 164° |
| 2026-05-08 19:42 | 12.88794 | 42.69128 | 36852 ft | 462 kts | 164° |
| 2026-05-08 19:43 | 12.82781 | 42.71102 | 36847 ft | 461 kts | 164° |
| 2026-05-08 19:43 | 12.76632 | 42.73121 | 36846 ft | 461 kts | 164° |
| 2026-05-08 19:44 | 12.70510 | 42.75132 | 36852 ft | 461 kts | 164° |
| 2026-05-08 19:44 | 12.64405 | 42.77140 | 36859 ft | 461 kts | 164° |
| 2026-05-08 19:45 | 12.58255 | 42.79147 | 36868 ft | 461 kts | 165° |
| 2026-05-08 19:45 | 12.52049 | 42.80964 | 36883 ft | 460 kts | 166° |
| 2026-05-08 19:46 | 12.45860 | 42.82745 | 36882 ft | 461 kts | 166° |
| 2026-05-08 19:46 | 12.36610 | 42.85435 | 36909 ft | 460 kts | 166° |
| 2026-05-08 19:47 | 12.30441 | 42.87238 | 36924 ft | 460 kts | 166° |
| 2026-05-08 19:47 | 12.24258 | 42.89046 | 36945 ft | 460 kts | 166° |
| 2026-05-08 19:48 | 12.18052 | 42.90861 | 36951 ft | 461 kts | 166° |
| 2026-05-08 19:48 | 12.11885 | 42.92664 | 36966 ft | 460 kts | 166° |
| 2026-05-08 19:49 | 12.05709 | 42.94469 | 36975 ft | 460 kts | 166° |
| 2026-05-08 19:49 | 11.99517 | 42.96277 | 36984 ft | 461 kts | 166° |
| 2026-05-08 19:50 | 11.93312 | 42.98089 | 36970 ft | 461 kts | 166° |
| 2026-05-08 19:50 | 11.87105 | 42.99899 | 36937 ft | 461 kts | 165° |
| 2026-05-08 19:51 | 11.80894 | 43.01714 | 36907 ft | 461 kts | 165° |
| 2026-05-08 19:51 | 11.74747 | 43.03510 | 36876 ft | 461 kts | 165° |
| 2026-05-08 19:52 | 11.68553 | 43.05321 | 36868 ft | 461 kts | 165° |
| 2026-05-08 19:52 | 11.62369 | 43.07127 | 36875 ft | 461 kts | 165° |
| 2026-05-08 19:53 | 11.56177 | 43.09046 | 36884 ft | 461 kts | 162° |
| 2026-05-08 19:53 | 11.50206 | 43.11527 | 37085 ft | 465 kts | 156° |
| 2026-05-08 19:54 | 11.47284 | 43.12941 | 37419 ft | 463 kts | 155° |
| 2026-05-08 19:54 | 11.44375 | 43.14364 | 37749 ft | 461 kts | 155° |
| 2026-05-08 19:54 | 11.41476 | 43.15783 | 38041 ft | 460 kts | 155° |
| 2026-05-08 19:54 | 11.38591 | 43.17186 | 38308 ft | 459 kts | 155° |
| 2026-05-08 19:55 | 11.35700 | 43.18595 | 38581 ft | 459 kts | 155° |
| 2026-05-08 19:55 | 11.32838 | 43.20039 | 38829 ft | 459 kts | 154° |
| 2026-05-08 19:55 | 11.27103 | 43.22984 | 38860 ft | 459 kts | 154° |
| 2026-05-08 19:56 | 11.21379 | 43.25927 | 38855 ft | 459 kts | 154° |
| 2026-05-08 19:56 | 11.15684 | 43.28854 | 38855 ft | 459 kts | 154° |
| 2026-05-08 19:57 | 11.09945 | 43.31798 | 38853 ft | 459 kts | 154° |
| 2026-05-08 19:57 | 11.04215 | 43.34736 | 38853 ft | 459 kts | 154° |
| 2026-05-08 19:58 | 10.98503 | 43.37666 | 38852 ft | 459 kts | 154° |
| 2026-05-08 19:58 | 10.92773 | 43.40602 | 38854 ft | 459 kts | 154° |
| 2026-05-08 19:59 | 10.87052 | 43.43533 | 38855 ft | 459 kts | 154° |
| 2026-05-08 19:59 | 10.81557 | 43.46349 | 38864 ft | 458 kts | 154° |
| 2026-05-08 20:00 | 10.75794 | 43.49300 | 38867 ft | 459 kts | 154° |
| 2026-05-08 20:00 | 10.70064 | 43.52235 | 38882 ft | 459 kts | 154° |
| 2026-05-08 20:01 | 10.64335 | 43.55172 | 38899 ft | 459 kts | 154° |
| 2026-05-08 20:01 | 10.58575 | 43.58124 | 38918 ft | 459 kts | 154° |
| 2026-05-08 20:02 | 10.52814 | 43.61031 | 38916 ft | 459 kts | 155° |
| 2026-05-08 20:02 | 10.47037 | 43.63777 | 38927 ft | 459 kts | 155° |
| 2026-05-08 20:03 | 10.41238 | 43.66534 | 38931 ft | 460 kts | 155° |
| 2026-05-08 20:03 | 10.35388 | 43.69330 | 38945 ft | 460 kts | 155° |
| 2026-05-08 20:04 | 10.29599 | 43.72103 | 38945 ft | 459 kts | 155° |
| 2026-05-08 20:04 | 10.23817 | 43.74874 | 38961 ft | 460 kts | 155° |
| 2026-05-08 20:05 | 10.18044 | 43.77639 | 38977 ft | 460 kts | 155° |
| 2026-05-08 20:05 | 10.12237 | 43.80420 | 39006 ft | 459 kts | 155° |
| 2026-05-08 20:06 | 10.06449 | 43.83194 | 39028 ft | 460 kts | 155° |
| 2026-05-08 20:06 | 10.00667 | 43.85963 | 39058 ft | 460 kts | 155° |
| 2026-05-08 20:07 | 9.94858 | 43.88742 | 39080 ft | 460 kts | 155° |
| 2026-05-08 20:07 | 9.89039 | 43.91526 | 39087 ft | 461 kts | 155° |
| 2026-05-08 20:08 | 9.83344 | 43.94250 | 39099 ft | 460 kts | 155° |
| 2026-05-08 20:08 | 9.77565 | 43.97016 | 39099 ft | 458 kts | 155° |
| 2026-05-08 20:09 | 9.71776 | 43.99788 | 39107 ft | 458 kts | 155° |
| 2026-05-08 20:09 | 9.65993 | 44.02559 | 39119 ft | 458 kts | 155° |
| 2026-05-08 20:10 | 9.60218 | 44.05319 | 39129 ft | 458 kts | 155° |
| 2026-05-08 20:10 | 9.54552 | 44.08330 | 39138 ft | 458 kts | 150° |
| 2026-05-08 20:11 | 9.49248 | 44.11899 | 39147 ft | 459 kts | 144° |
| 2026-05-08 20:11 | 9.44298 | 44.16011 | 39147 ft | 460 kts | 140° |
| 2026-05-08 20:12 | 9.39461 | 44.20264 | 39142 ft | 459 kts | 140° |
| 2026-05-08 20:12 | 9.34664 | 44.24480 | 39138 ft | 457 kts | 140° |
| 2026-05-08 20:13 | 9.29871 | 44.28687 | 39132 ft | 457 kts | 140° |
| 2026-05-08 20:13 | 9.25057 | 44.32909 | 39121 ft | 456 kts | 140° |
| 2026-05-08 20:14 | 9.20259 | 44.37114 | 39115 ft | 456 kts | 140° |
| 2026-05-08 20:14 | 9.15444 | 44.41331 | 39110 ft | 456 kts | 140° |
| 2026-05-08 20:15 | 9.10623 | 44.45553 | 39110 ft | 455 kts | 140° |
| 2026-05-08 20:15 | 9.05853 | 44.49728 | 39115 ft | 455 kts | 140° |
| 2026-05-08 20:16 | 9.01042 | 44.53941 | 39114 ft | 454 kts | 140° |
| 2026-05-08 20:16 | 8.96263 | 44.58124 | 39114 ft | 454 kts | 140° |
| 2026-05-08 20:17 | 8.91529 | 44.62267 | 39108 ft | 453 kts | 140° |
| 2026-05-08 20:17 | 8.86877 | 44.66340 | 39103 ft | 453 kts | 140° |
| 2026-05-08 20:18 | 8.82170 | 44.70464 | 39099 ft | 452 kts | 140° |
| 2026-05-08 20:18 | 8.77411 | 44.74628 | 39092 ft | 451 kts | 140° |
| 2026-05-08 20:19 | 8.72706 | 44.78856 | 39087 ft | 451 kts | 139° |
| 2026-05-08 20:19 | 8.68059 | 44.83159 | 39081 ft | 452 kts | 138° |
| 2026-05-08 20:20 | 8.63421 | 44.87456 | 39076 ft | 451 kts | 139° |
| 2026-05-08 20:20 | 8.58776 | 44.91752 | 39068 ft | 451 kts | 139° |
| 2026-05-08 20:21 | 8.54163 | 44.96016 | 39062 ft | 450 kts | 138° |
| 2026-05-08 20:21 | 8.49531 | 45.00296 | 39056 ft | 449 kts | 138° |
| 2026-05-08 20:22 | 8.44912 | 45.04563 | 39049 ft | 450 kts | 139° |
| 2026-05-08 20:22 | 8.41072 | 45.08109 | 39046 ft | 450 kts | 139° |
| 2026-05-08 20:23 | 8.35666 | 45.13098 | 39040 ft | 449 kts | 139° |
| 2026-05-08 20:23 | 8.31040 | 45.17366 | 39037 ft | 449 kts | 139° |
| 2026-05-08 20:24 | 8.26447 | 45.21603 | 39031 ft | 449 kts | 139° |
| 2026-05-08 20:24 | 8.21833 | 45.25858 | 39024 ft | 449 kts | 139° |
| 2026-05-08 20:25 | 8.17212 | 45.30117 | 39021 ft | 449 kts | 139° |
| 2026-05-08 20:25 | 8.12580 | 45.34386 | 39018 ft | 449 kts | 139° |
| 2026-05-08 20:26 | 8.07960 | 45.38642 | 39012 ft | 450 kts | 139° |
| 2026-05-08 20:26 | 8.03352 | 45.42887 | 39007 ft | 449 kts | 139° |
| 2026-05-08 20:27 | 7.98721 | 45.47152 | 39002 ft | 450 kts | 139° |
| 2026-05-08 20:27 | 7.94109 | 45.51398 | 38996 ft | 449 kts | 139° |
| 2026-05-08 20:28 | 7.89491 | 45.55648 | 38997 ft | 450 kts | 139° |
| 2026-05-08 20:28 | 7.85036 | 45.59749 | 39001 ft | 449 kts | 138° |
| 2026-05-08 20:29 | 7.80491 | 45.63934 | 38997 ft | 450 kts | 138° |
| 2026-05-08 20:29 | 7.75946 | 45.68121 | 38994 ft | 450 kts | 139° |
| 2026-05-08 20:30 | 7.71328 | 45.72375 | 38989 ft | 450 kts | 139° |
| 2026-05-08 20:30 | 7.66693 | 45.76635 | 38984 ft | 450 kts | 139° |
| 2026-05-08 20:31 | 7.62078 | 45.80859 | 38981 ft | 450 kts | 139° |
| 2026-05-08 20:31 | 7.57438 | 45.85118 | 38977 ft | 450 kts | 139° |
| 2026-05-08 20:32 | 7.52806 | 45.89379 | 38975 ft | 450 kts | 138° |
| 2026-05-08 20:32 | 7.48179 | 45.93639 | 38972 ft | 450 kts | 138° |
| 2026-05-08 20:33 | 7.43535 | 45.97914 | 38971 ft | 451 kts | 138° |
| 2026-05-08 20:33 | 7.38917 | 46.02164 | 38968 ft | 451 kts | 138° |
| 2026-05-08 20:34 | 7.34290 | 46.06419 | 38966 ft | 451 kts | 138° |
| 2026-05-08 20:35 | 7.27345 | 46.12806 | 38963 ft | 450 kts | 138° |
| 2026-05-08 20:35 | 7.22690 | 46.17085 | 38960 ft | 451 kts | 138° |
| 2026-05-08 20:36 | 7.18044 | 46.21355 | 38958 ft | 452 kts | 138° |
| 2026-05-08 20:36 | 7.13398 | 46.25626 | 38955 ft | 452 kts | 138° |
| 2026-05-08 20:37 | 7.08746 | 46.29901 | 38951 ft | 451 kts | 138° |
| 2026-05-08 20:37 | 7.04106 | 46.34162 | 38949 ft | 451 kts | 138° |
| 2026-05-08 20:38 | 6.99448 | 46.38440 | 38947 ft | 451 kts | 138° |
| 2026-05-08 20:38 | 6.94757 | 46.42747 | 38944 ft | 451 kts | 138° |
| 2026-05-08 20:39 | 6.90081 | 46.47040 | 38941 ft | 451 kts | 138° |
| 2026-05-08 20:39 | 6.85557 | 46.51195 | 38940 ft | 452 kts | 137° |
| 2026-05-08 20:40 | 6.80972 | 46.55407 | 38939 ft | 453 kts | 137° |
| 2026-05-08 20:40 | 6.76344 | 46.59662 | 38939 ft | 453 kts | 137° |
| 2026-05-08 20:41 | 6.71664 | 46.63959 | 38936 ft | 453 kts | 137° |
| 2026-05-08 20:41 | 6.67002 | 46.68016 | 38933 ft | 454 kts | 141° |
| 2026-05-08 20:42 | 6.61997 | 46.71984 | 38929 ft | 453 kts | 142° |
| 2026-05-08 20:42 | 6.57075 | 46.75888 | 38928 ft | 454 kts | 142° |
| 2026-05-08 20:43 | 6.52081 | 46.79858 | 38925 ft | 454 kts | 142° |
| 2026-05-08 20:43 | 6.47135 | 46.83792 | 38923 ft | 455 kts | 142° |
| 2026-05-08 20:44 | 6.42166 | 46.87745 | 38921 ft | 455 kts | 142° |
| 2026-05-08 20:44 | 6.37191 | 46.91700 | 38927 ft | 457 kts | 141° |
| 2026-05-08 20:45 | 6.32204 | 46.95667 | 38932 ft | 457 kts | 141° |
| 2026-05-08 20:45 | 6.27192 | 46.99652 | 38932 ft | 458 kts | 142° |
| 2026-05-08 20:46 | 6.22188 | 47.03628 | 38931 ft | 459 kts | 142° |
| 2026-05-08 20:46 | 6.17117 | 47.07656 | 38925 ft | 460 kts | 141° |
| 2026-05-08 20:47 | 6.12100 | 47.11642 | 38930 ft | 460 kts | 141° |
| 2026-05-08 20:47 | 6.07078 | 47.15631 | 38922 ft | 459 kts | 141° |
| 2026-05-08 20:48 | 6.02084 | 47.19599 | 38920 ft | 459 kts | 141° |
| 2026-05-08 20:48 | 5.97058 | 47.23589 | 38914 ft | 459 kts | 141° |
| 2026-05-08 20:49 | 5.92053 | 47.27563 | 38909 ft | 459 kts | 141° |
| 2026-05-08 20:49 | 5.87131 | 47.31472 | 38912 ft | 461 kts | 141° |
| 2026-05-08 20:50 | 5.82073 | 47.35488 | 38907 ft | 461 kts | 141° |
| 2026-05-08 20:50 | 5.77008 | 47.39510 | 38903 ft | 460 kts | 141° |
| 2026-05-08 20:51 | 5.71982 | 47.43507 | 38901 ft | 460 kts | 141° |
| 2026-05-08 20:51 | 5.66960 | 47.47497 | 38900 ft | 459 kts | 141° |
| 2026-05-08 20:52 | 5.61940 | 47.51489 | 38894 ft | 459 kts | 141° |
| 2026-05-08 20:52 | 5.56923 | 47.55506 | 38895 ft | 460 kts | 141° |
| 2026-05-08 20:53 | 5.51882 | 47.59553 | 38894 ft | 461 kts | 141° |
| 2026-05-08 20:53 | 5.46862 | 47.63586 | 38892 ft | 461 kts | 141° |
| 2026-05-08 20:54 | 5.41822 | 47.67635 | 38891 ft | 460 kts | 141° |
| 2026-05-08 20:54 | 5.36785 | 47.71682 | 38894 ft | 460 kts | 141° |
| 2026-05-08 20:55 | 5.31767 | 47.75714 | 38890 ft | 460 kts | 141° |
| 2026-05-08 20:55 | 5.26744 | 47.79750 | 38888 ft | 460 kts | 141° |
| 2026-05-08 20:56 | 5.21745 | 47.83763 | 38893 ft | 461 kts | 141° |
| 2026-05-08 20:56 | 5.16705 | 47.87806 | 38886 ft | 461 kts | 141° |
| 2026-05-08 20:57 | 5.11696 | 47.91826 | 38887 ft | 461 kts | 141° |
| 2026-05-08 20:57 | 5.06640 | 47.95883 | 38887 ft | 461 kts | 141° |
| 2026-05-08 20:58 | 5.01618 | 47.99914 | 38889 ft | 462 kts | 141° |
| 2026-05-08 20:58 | 4.96583 | 48.03956 | 38896 ft | 462 kts | 141° |
| 2026-05-08 20:59 | 4.91537 | 48.08003 | 38898 ft | 462 kts | 141° |
| 2026-05-08 20:59 | 4.86530 | 48.12015 | 38896 ft | 462 kts | 141° |
| 2026-05-08 21:00 | 4.81482 | 48.16063 | 38892 ft | 462 kts | 141° |
| 2026-05-08 21:00 | 4.76448 | 48.20098 | 38885 ft | 462 kts | 141° |
| 2026-05-08 21:01 | 4.71429 | 48.24121 | 38881 ft | 462 kts | 141° |
| 2026-05-08 21:01 | 4.66399 | 48.28153 | 38879 ft | 463 kts | 141° |
| 2026-05-08 21:02 | 4.61358 | 48.32192 | 38881 ft | 463 kts | 141° |
| 2026-05-08 21:02 | 4.56352 | 48.36205 | 38880 ft | 463 kts | 141° |
| 2026-05-08 21:03 | 4.51307 | 48.40247 | 38880 ft | 463 kts | 141° |
| 2026-05-08 21:03 | 4.46290 | 48.44265 | 38879 ft | 463 kts | 141° |
| 2026-05-08 21:04 | 4.41228 | 48.48320 | 38881 ft | 464 kts | 141° |
| 2026-05-08 21:04 | 4.36214 | 48.52337 | 38879 ft | 464 kts | 141° |
| 2026-05-08 21:05 | 4.31142 | 48.56403 | 38879 ft | 464 kts | 141° |
| 2026-05-08 21:05 | 4.26115 | 48.60437 | 38881 ft | 464 kts | 141° |
| 2026-05-08 21:06 | 4.21082 | 48.64471 | 38881 ft | 464 kts | 141° |
| 2026-05-08 21:06 | 4.16009 | 48.68502 | 38882 ft | 465 kts | 142° |
| 2026-05-08 21:07 | 4.10928 | 48.72519 | 38882 ft | 465 kts | 141° |
| 2026-05-08 21:07 | 4.05851 | 48.76545 | 38884 ft | 464 kts | 141° |
| 2026-05-08 21:08 | 4.00762 | 48.80591 | 38883 ft | 464 kts | 141° |
| 2026-05-08 21:08 | 3.95689 | 48.84626 | 38883 ft | 465 kts | 141° |
| 2026-05-08 21:09 | 3.90634 | 48.88646 | 38883 ft | 465 kts | 141° |
| 2026-05-08 21:09 | 3.85540 | 48.92695 | 38883 ft | 466 kts | 141° |
| 2026-05-08 21:10 | 3.80458 | 48.96736 | 38884 ft | 466 kts | 141° |
| 2026-05-08 21:10 | 3.75337 | 49.00808 | 38884 ft | 465 kts | 141° |
| 2026-05-08 21:11 | 3.70270 | 49.04837 | 38884 ft | 465 kts | 141° |
| 2026-05-08 21:11 | 3.65191 | 49.08874 | 38883 ft | 465 kts | 141° |
| 2026-05-08 21:12 | 3.60094 | 49.12923 | 38883 ft | 465 kts | 141° |
| 2026-05-08 21:12 | 3.55006 | 49.16964 | 38883 ft | 465 kts | 141° |
| 2026-05-08 21:13 | 3.49947 | 49.20983 | 38882 ft | 466 kts | 141° |
| 2026-05-08 21:13 | 3.44848 | 49.25035 | 38877 ft | 466 kts | 141° |
| 2026-05-08 21:14 | 3.39769 | 49.29069 | 38872 ft | 466 kts | 141° |
| 2026-05-08 21:14 | 3.34657 | 49.33129 | 38867 ft | 466 kts | 141° |
| 2026-05-08 21:15 | 3.29598 | 49.37146 | 38863 ft | 466 kts | 141° |
| 2026-05-08 21:15 | 3.24514 | 49.41182 | 38863 ft | 466 kts | 141° |
| 2026-05-08 21:16 | 3.19436 | 49.45214 | 38863 ft | 466 kts | 141° |
| 2026-05-08 21:16 | 3.14322 | 49.49273 | 38863 ft | 467 kts | 141° |
| 2026-05-08 21:17 | 3.09257 | 49.53294 | 38864 ft | 467 kts | 141° |
| 2026-05-08 21:17 | 3.04157 | 49.57344 | 38868 ft | 468 kts | 141° |
| 2026-05-08 21:18 | 2.99064 | 49.61386 | 38871 ft | 468 kts | 141° |
| 2026-05-08 21:18 | 2.93972 | 49.65428 | 38870 ft | 466 kts | 141° |
| 2026-05-08 21:19 | 2.88874 | 49.69474 | 38871 ft | 466 kts | 141° |
| 2026-05-08 21:19 | 2.83799 | 49.73506 | 38869 ft | 467 kts | 141° |
| 2026-05-08 21:20 | 2.78697 | 49.77564 | 38872 ft | 468 kts | 141° |
| 2026-05-08 21:20 | 2.73587 | 49.81627 | 38878 ft | 467 kts | 141° |
| 2026-05-08 21:21 | 2.68524 | 49.85699 | 38882 ft | 468 kts | 140° |
| 2026-05-08 21:21 | 2.63521 | 49.89881 | 38883 ft | 468 kts | 139° |
| 2026-05-08 21:22 | 2.58536 | 49.94064 | 38883 ft | 468 kts | 139° |
| 2026-05-08 21:22 | 2.53539 | 49.98251 | 38883 ft | 467 kts | 139° |
| 2026-05-08 21:23 | 2.48567 | 50.02415 | 38882 ft | 467 kts | 139° |
| 2026-05-08 21:23 | 2.43589 | 50.06584 | 38882 ft | 467 kts | 139° |
| 2026-05-08 21:24 | 2.38550 | 50.10805 | 38882 ft | 468 kts | 139° |
| 2026-05-08 21:24 | 2.33546 | 50.14995 | 38882 ft | 468 kts | 139° |
| 2026-05-08 21:25 | 2.28505 | 50.19217 | 38883 ft | 469 kts | 139° |
| 2026-05-08 21:25 | 2.23454 | 50.23446 | 38883 ft | 468 kts | 139° |
| 2026-05-08 21:26 | 2.18439 | 50.27645 | 38883 ft | 468 kts | 139° |
| 2026-05-08 21:26 | 2.13412 | 50.31855 | 38883 ft | 469 kts | 139° |
| 2026-05-08 21:27 | 2.08405 | 50.36050 | 38883 ft | 469 kts | 139° |
| 2026-05-08 21:27 | 2.03362 | 50.40276 | 38884 ft | 469 kts | 139° |
| 2026-05-08 21:28 | 1.98350 | 50.44480 | 38884 ft | 470 kts | 139° |
| 2026-05-08 21:28 | 1.93342 | 50.48682 | 38883 ft | 470 kts | 139° |
| 2026-05-08 21:29 | 1.88302 | 50.52891 | 38878 ft | 471 kts | 139° |
| 2026-05-08 21:29 | 1.83255 | 50.57085 | 38869 ft | 471 kts | 139° |
| 2026-05-08 21:30 | 1.78229 | 50.61274 | 38863 ft | 471 kts | 139° |
| 2026-05-08 21:30 | 1.73200 | 50.65476 | 38864 ft | 471 kts | 139° |
| 2026-05-08 21:31 | 1.68160 | 50.69690 | 38864 ft | 472 kts | 139° |
| 2026-05-08 21:31 | 1.63094 | 50.73927 | 38865 ft | 473 kts | 139° |
| 2026-05-08 21:32 | 1.58039 | 50.78154 | 38865 ft | 474 kts | 139° |
| 2026-05-08 21:32 | 1.52954 | 50.82406 | 38863 ft | 473 kts | 139° |
| 2026-05-08 21:33 | 1.47897 | 50.86634 | 38864 ft | 473 kts | 139° |
| 2026-05-08 21:33 | 1.42818 | 50.90880 | 38863 ft | 473 kts | 139° |
| 2026-05-08 21:34 | 1.37749 | 50.95120 | 38867 ft | 472 kts | 139° |
| 2026-05-08 21:34 | 1.32703 | 50.99340 | 38876 ft | 472 kts | 139° |
| 2026-05-08 21:35 | 1.27635 | 51.03579 | 38882 ft | 472 kts | 139° |
| 2026-05-08 21:35 | 1.22535 | 51.07847 | 38883 ft | 474 kts | 139° |
| 2026-05-08 21:36 | 1.17463 | 51.12094 | 38883 ft | 473 kts | 139° |
| 2026-05-08 21:36 | 1.12412 | 51.16328 | 38883 ft | 472 kts | 139° |
| 2026-05-08 21:37 | 1.07353 | 51.20559 | 38883 ft | 471 kts | 140° |
| 2026-05-08 21:37 | 1.02015 | 51.24476 | 38883 ft | 472 kts | 146° |
| 2026-05-08 21:38 | 0.96333 | 51.27883 | 38883 ft | 472 kts | 149° |
| 2026-05-08 21:38 | 0.90630 | 51.31182 | 38883 ft | 473 kts | 149° |
| 2026-05-08 21:39 | 0.84895 | 51.34508 | 38883 ft | 474 kts | 149° |
| 2026-05-08 21:39 | 0.79149 | 51.37846 | 38883 ft | 473 kts | 149° |
| 2026-05-08 21:40 | 0.73434 | 51.41172 | 38883 ft | 473 kts | 149° |
| 2026-05-08 21:40 | 0.67703 | 51.44506 | 38883 ft | 473 kts | 149° |
| 2026-05-08 21:41 | 0.59133 | 51.49493 | 38883 ft | 473 kts | 149° |
| 2026-05-08 21:41 | 0.53402 | 51.52827 | 38883 ft | 473 kts | 148° |
| 2026-05-08 21:42 | 0.47688 | 51.56150 | 38883 ft | 474 kts | 148° |
| 2026-05-08 21:42 | 0.41934 | 51.59498 | 38883 ft | 474 kts | 148° |
| 2026-05-08 21:43 | 0.36222 | 51.62822 | 38883 ft | 473 kts | 148° |
| 2026-05-08 21:43 | 0.30474 | 51.66166 | 38882 ft | 474 kts | 148° |
| 2026-05-08 21:44 | 0.24768 | 51.69485 | 38873 ft | 474 kts | 148° |
| 2026-05-08 21:44 | 0.18981 | 51.72851 | 38864 ft | 474 kts | 148° |
| 2026-05-08 21:45 | 0.13267 | 51.76175 | 38862 ft | 474 kts | 148° |
| 2026-05-08 21:45 | 0.07554 | 51.79499 | 38862 ft | 473 kts | 148° |
| 2026-05-08 21:46 | 0.01820 | 51.82835 | 38862 ft | 474 kts | 148° |
| 2026-05-08 21:46 | -0.03944 | 51.86189 | 38862 ft | 475 kts | 148° |
| 2026-05-08 21:47 | -0.09668 | 51.89518 | 38862 ft | 475 kts | 148° |
| 2026-05-08 21:47 | -0.15428 | 51.92870 | 38862 ft | 474 kts | 148° |
| 2026-05-08 21:48 | -0.21162 | 51.96205 | 38863 ft | 474 kts | 148° |
| 2026-05-08 21:48 | -0.26866 | 51.99524 | 38862 ft | 475 kts | 148° |
| 2026-05-08 21:49 | -0.32608 | 52.02865 | 38862 ft | 475 kts | 148° |
| 2026-05-08 21:49 | -0.38349 | 52.06205 | 38862 ft | 475 kts | 148° |
| 2026-05-08 21:50 | -0.44073 | 52.09536 | 38862 ft | 474 kts | 148° |
| 2026-05-08 21:50 | -0.49808 | 52.12872 | 38862 ft | 474 kts | 148° |
| 2026-05-08 21:51 | -0.55531 | 52.16200 | 38862 ft | 474 kts | 148° |
| 2026-05-08 21:51 | -0.61272 | 52.19541 | 38862 ft | 474 kts | 148° |
| 2026-05-08 21:52 | -0.67005 | 52.22876 | 38862 ft | 474 kts | 148° |
| 2026-05-08 21:52 | -0.72733 | 52.26210 | 38863 ft | 473 kts | 148° |
| 2026-05-08 21:53 | -0.78447 | 52.29534 | 38865 ft | 472 kts | 148° |
| 2026-05-08 21:53 | -0.84123 | 52.32838 | 38866 ft | 472 kts | 148° |
| 2026-05-08 21:54 | -0.89858 | 52.36174 | 38871 ft | 472 kts | 148° |
| 2026-05-08 21:54 | -0.95569 | 52.39498 | 38874 ft | 473 kts | 148° |
| 2026-05-08 21:55 | -1.01248 | 52.42804 | 38879 ft | 472 kts | 148° |
| 2026-05-08 21:56 | -1.09838 | 52.47803 | 38880 ft | 472 kts | 148° |
| 2026-05-08 21:56 | -1.15536 | 52.51119 | 38876 ft | 471 kts | 148° |
| 2026-05-08 21:57 | -1.21243 | 52.54441 | 38872 ft | 471 kts | 148° |
| 2026-05-08 21:57 | -1.26934 | 52.57754 | 38867 ft | 472 kts | 148° |
| 2026-05-08 21:58 | -1.32648 | 52.61080 | 38864 ft | 472 kts | 148° |
| 2026-05-08 21:58 | -1.38353 | 52.64400 | 38863 ft | 472 kts | 148° |
| 2026-05-08 21:59 | -1.44031 | 52.67706 | 38862 ft | 472 kts | 148° |
| 2026-05-08 21:59 | -1.49716 | 52.71016 | 38862 ft | 471 kts | 148° |
| 2026-05-08 22:00 | -1.55375 | 52.74311 | 38862 ft | 471 kts | 149° |
| 2026-05-08 22:00 | -1.61072 | 52.77628 | 38862 ft | 471 kts | 149° |
| 2026-05-08 22:01 | -1.66734 | 52.80925 | 38862 ft | 472 kts | 148° |
| 2026-05-08 22:01 | -1.72425 | 52.84240 | 38862 ft | 472 kts | 149° |
| 2026-05-08 22:02 | -1.77968 | 52.87468 | 38862 ft | 472 kts | 149° |
| 2026-05-08 22:02 | -1.83644 | 52.90774 | 38862 ft | 472 kts | 149° |
| 2026-05-08 22:03 | -1.89393 | 52.94122 | 38862 ft | 473 kts | 148° |
| 2026-05-08 22:03 | -1.95070 | 52.97429 | 38862 ft | 474 kts | 148° |
| 2026-05-08 22:04 | -2.00797 | 53.00767 | 38862 ft | 474 kts | 149° |
| 2026-05-08 22:04 | -2.06498 | 53.04089 | 38862 ft | 473 kts | 149° |
| 2026-05-08 22:05 | -2.12177 | 53.07396 | 38862 ft | 472 kts | 148° |
| 2026-05-08 22:05 | -2.17877 | 53.10718 | 38862 ft | 472 kts | 148° |
| 2026-05-08 22:06 | -2.20805 | 53.12425 | 38863 ft | 472 kts | 148° |
| 2026-05-08 22:06 | -2.26498 | 53.15744 | 38862 ft | 474 kts | 148° |
| 2026-05-08 22:07 | -2.32176 | 53.19056 | 38862 ft | 474 kts | 148° |
| 2026-05-08 22:07 | -2.37909 | 53.22398 | 38861 ft | 473 kts | 148° |
| 2026-05-08 22:08 | -2.43647 | 53.25742 | 38861 ft | 473 kts | 148° |
| 2026-05-08 22:08 | -2.49371 | 53.29080 | 38860 ft | 473 kts | 148° |
| 2026-05-08 22:09 | -2.55089 | 53.32417 | 38860 ft | 472 kts | 148° |
| 2026-05-08 22:09 | -2.60757 | 53.35724 | 38860 ft | 472 kts | 148° |
| 2026-05-08 22:10 | -2.66452 | 53.39047 | 38860 ft | 472 kts | 148° |
| 2026-05-08 22:10 | -2.72114 | 53.42352 | 38861 ft | 472 kts | 148° |
| 2026-05-08 22:11 | -2.77800 | 53.45674 | 38861 ft | 472 kts | 148° |
| 2026-05-08 22:11 | -2.83480 | 53.48996 | 38861 ft | 473 kts | 148° |
| 2026-05-08 22:12 | -2.89158 | 53.52320 | 38862 ft | 473 kts | 148° |
| 2026-05-08 22:12 | -2.94844 | 53.55648 | 38862 ft | 472 kts | 148° |
| 2026-05-08 22:13 | -3.00414 | 53.59069 | 38861 ft | 470 kts | 144° |
| 2026-05-08 22:13 | -3.03083 | 53.60979 | 38545 ft | 470 kts | 141° |
| 2026-05-08 22:13 | -3.05643 | 53.63032 | 38075 ft | 467 kts | 137° |
| 2026-05-08 22:13 | -3.08048 | 53.65187 | 37537 ft | 466 kts | 134° |
| 2026-05-08 22:14 | -3.10357 | 53.67491 | 36980 ft | 464 kts | 131° |
| 2026-05-08 22:14 | -3.12533 | 53.69872 | 36422 ft | 463 kts | 130° |
| 2026-05-08 22:14 | -3.14675 | 53.72264 | 35871 ft | 462 kts | 130° |
| 2026-05-08 22:14 | -3.16822 | 53.74667 | 35311 ft | 462 kts | 130° |
| 2026-05-08 22:15 | -3.18958 | 53.77057 | 34761 ft | 461 kts | 130° |
| 2026-05-08 22:15 | -3.21090 | 53.79438 | 34203 ft | 460 kts | 130° |
| 2026-05-08 22:15 | -3.23233 | 53.81830 | 33637 ft | 460 kts | 130° |
| 2026-05-08 22:15 | -3.25350 | 53.84193 | 33069 ft | 459 kts | 130° |
| 2026-05-08 22:16 | -3.27491 | 53.86579 | 32501 ft | 459 kts | 130° |
| 2026-05-08 22:16 | -3.29612 | 53.88945 | 31946 ft | 459 kts | 130° |
| 2026-05-08 22:16 | -3.31741 | 53.91318 | 31362 ft | 460 kts | 130° |
| 2026-05-08 22:16 | -3.33885 | 53.93709 | 30757 ft | 460 kts | 130° |
| 2026-05-08 22:17 | -3.36017 | 53.96086 | 30137 ft | 461 kts | 130° |
| 2026-05-08 22:17 | -3.38159 | 53.98473 | 29506 ft | 462 kts | 130° |
| 2026-05-08 22:17 | -3.40298 | 54.00859 | 28862 ft | 464 kts | 130° |
| 2026-05-08 22:17 | -3.42459 | 54.03268 | 28212 ft | 465 kts | 130° |
| 2026-05-08 22:18 | -3.44607 | 54.05663 | 27544 ft | 466 kts | 130° |
| 2026-05-08 22:18 | -3.46799 | 54.08109 | 26844 ft | 468 kts | 130° |
| 2026-05-08 22:18 | -3.48962 | 54.10522 | 26277 ft | 467 kts | 130° |
| 2026-05-08 22:18 | -3.51116 | 54.12924 | 25836 ft | 465 kts | 130° |
| 2026-05-08 22:19 | -3.53276 | 54.15334 | 25331 ft | 462 kts | 130° |
| 2026-05-08 22:19 | -3.55427 | 54.17734 | 24833 ft | 459 kts | 130° |
| 2026-05-08 22:19 | -3.57538 | 54.20090 | 24299 ft | 457 kts | 130° |
| 2026-05-08 22:19 | -3.59662 | 54.22463 | 23804 ft | 455 kts | 130° |
| 2026-05-08 22:20 | -3.61770 | 54.24816 | 23271 ft | 453 kts | 131° |
| 2026-05-08 22:20 | -3.63841 | 54.27128 | 22788 ft | 450 kts | 131° |
| 2026-05-08 22:20 | -3.65936 | 54.29465 | 22320 ft | 447 kts | 131° |
| 2026-05-08 22:20 | -3.68012 | 54.31782 | 21881 ft | 444 kts | 131° |
| 2026-05-08 22:21 | -3.70064 | 54.34074 | 21453 ft | 441 kts | 131° |
| 2026-05-08 22:21 | -3.72120 | 54.36369 | 21017 ft | 438 kts | 131° |
| 2026-05-08 22:21 | -3.74149 | 54.38634 | 20590 ft | 435 kts | 131° |
| 2026-05-08 22:21 | -3.76156 | 54.40878 | 20166 ft | 432 kts | 131° |
| 2026-05-08 22:22 | -3.78146 | 54.43100 | 19744 ft | 429 kts | 131° |
| 2026-05-08 22:22 | -3.80133 | 54.45320 | 19318 ft | 425 kts | 131° |
| 2026-05-08 22:22 | -3.82099 | 54.47517 | 18894 ft | 422 kts | 131° |
| 2026-05-08 22:22 | -3.84060 | 54.49709 | 18471 ft | 419 kts | 131° |
| 2026-05-08 22:23 | -3.85981 | 54.51856 | 18060 ft | 415 kts | 131° |
| 2026-05-08 22:23 | -3.87896 | 54.53995 | 17646 ft | 412 kts | 131° |
| 2026-05-08 22:23 | -3.89816 | 54.56141 | 17229 ft | 409 kts | 131° |
| 2026-05-08 22:23 | -3.91712 | 54.58261 | 16803 ft | 406 kts | 131° |
| 2026-05-08 22:24 | -3.93575 | 54.60343 | 16374 ft | 404 kts | 131° |
| 2026-05-08 22:24 | -3.95464 | 54.62453 | 15932 ft | 402 kts | 131° |
| 2026-05-08 22:24 | -3.97324 | 54.64532 | 15491 ft | 400 kts | 131° |
| 2026-05-08 22:24 | -3.99173 | 54.66598 | 15055 ft | 398 kts | 131° |
| 2026-05-08 22:25 | -4.00997 | 54.68640 | 14624 ft | 396 kts | 131° |
| 2026-05-08 22:25 | -4.02849 | 54.70711 | 14188 ft | 395 kts | 131° |
| 2026-05-08 22:25 | -4.04662 | 54.72739 | 13761 ft | 393 kts | 131° |
| 2026-05-08 22:25 | -4.06478 | 54.74771 | 13329 ft | 391 kts | 131° |
| 2026-05-08 22:26 | -4.08310 | 54.76821 | 12895 ft | 389 kts | 131° |
| 2026-05-08 22:26 | -4.10107 | 54.78831 | 12472 ft | 387 kts | 131° |
| 2026-05-08 22:26 | -4.11896 | 54.80833 | 12048 ft | 385 kts | 131° |
| 2026-05-08 22:26 | -4.13675 | 54.82824 | 11630 ft | 382 kts | 131° |
| 2026-05-08 22:27 | -4.15444 | 54.84801 | 11214 ft | 380 kts | 131° |
| 2026-05-08 22:27 | -4.17191 | 54.86756 | 10802 ft | 377 kts | 131° |
| 2026-05-08 22:27 | -4.18940 | 54.88715 | 10442 ft | 368 kts | 131° |
| 2026-05-08 22:27 | -4.20576 | 54.90548 | 10262 ft | 344 kts | 131° |
| 2026-05-08 22:28 | -4.22129 | 54.92289 | 10213 ft | 319 kts | 131° |
| 2026-05-08 22:28 | -4.23563 | 54.93898 | 10178 ft | 298 kts | 131° |
| 2026-05-08 22:28 | -4.24894 | 54.95392 | 10173 ft | 284 kts | 131° |
| 2026-05-08 22:28 | -4.26200 | 54.96859 | 10121 ft | 280 kts | 131° |
| 2026-05-08 22:29 | -4.27501 | 54.98318 | 10072 ft | 276 kts | 131° |
| 2026-05-08 22:29 | -4.28770 | 54.99742 | 10028 ft | 273 kts | 131° |
| 2026-05-08 22:29 | -4.30041 | 55.01168 | 9990 ft | 271 kts | 131° |
| 2026-05-08 22:29 | -4.31300 | 55.02581 | 9864 ft | 272 kts | 131° |
| 2026-05-08 22:30 | -4.32563 | 55.03997 | 9566 ft | 274 kts | 131° |
| 2026-05-08 22:30 | -4.33826 | 55.05412 | 9273 ft | 275 kts | 131° |
| 2026-05-08 22:30 | -4.35099 | 55.06836 | 9011 ft | 274 kts | 131° |
| 2026-05-08 22:30 | -4.36378 | 55.08269 | 8751 ft | 274 kts | 131° |
| 2026-05-08 22:31 | -4.37640 | 55.09684 | 8488 ft | 273 kts | 130° |
| 2026-05-08 22:31 | -4.38660 | 55.11288 | 8225 ft | 271 kts | 111° |
| 2026-05-08 22:31 | -4.39114 | 55.13102 | 7956 ft | 271 kts | 97° |
| 2026-05-08 22:31 | -4.39314 | 55.14977 | 7705 ft | 270 kts | 96° |
| 2026-05-08 22:32 | -4.39491 | 55.16861 | 7456 ft | 270 kts | 96° |
| 2026-05-08 22:32 | -4.39673 | 55.18739 | 7190 ft | 269 kts | 96° |
| 2026-05-08 22:32 | -4.39853 | 55.20560 | 6939 ft | 262 kts | 97° |
| 2026-05-08 22:32 | -4.40037 | 55.22370 | 6710 ft | 258 kts | 97° |
| 2026-05-08 22:33 | -4.40219 | 55.24149 | 6430 ft | 254 kts | 97° |
| 2026-05-08 22:33 | -4.40395 | 55.25872 | 6227 ft | 245 kts | 97° |
| 2026-05-08 22:33 | -4.40570 | 55.27560 | 6005 ft | 244 kts | 97° |
| 2026-05-08 22:33 | -4.40744 | 55.29250 | 5772 ft | 243 kts | 97° |
| 2026-05-08 22:34 | -4.40919 | 55.30936 | 5542 ft | 241 kts | 97° |
| 2026-05-08 22:34 | -4.41089 | 55.32573 | 5324 ft | 238 kts | 97° |
| 2026-05-08 22:34 | -4.41261 | 55.34233 | 5097 ft | 236 kts | 97° |
| 2026-05-08 22:34 | -4.41428 | 55.35849 | 4875 ft | 234 kts | 97° |
| 2026-05-08 22:35 | -4.41595 | 55.37455 | 4650 ft | 231 kts | 97° |
| 2026-05-08 22:35 | -4.41757 | 55.39024 | 4504 ft | 219 kts | 97° |
| 2026-05-08 22:35 | -4.41908 | 55.40494 | 4504 ft | 207 kts | 97° |
| 2026-05-08 22:35 | -4.42053 | 55.41899 | 4484 ft | 196 kts | 97° |
| 2026-05-08 22:36 | -4.42188 | 55.43205 | 4479 ft | 187 kts | 98° |
| 2026-05-08 22:36 | -4.42331 | 55.44465 | 4484 ft | 175 kts | 105° |
| 2026-05-08 22:36 | -4.42875 | 55.45533 | 4482 ft | 171 kts | 134° |
| 2026-05-08 22:36 | -4.43859 | 55.46180 | 4369 ft | 174 kts | 161° |
| 2026-05-08 22:37 | -4.45071 | 55.46325 | 4111 ft | 177 kts | 177° |
| 2026-05-08 22:37 | -4.46314 | 55.46322 | 3890 ft | 177 kts | 178° |
| 2026-05-08 22:37 | -4.47549 | 55.46310 | 3711 ft | 173 kts | 178° |
| 2026-05-08 22:37 | -4.48734 | 55.46304 | 3563 ft | 170 kts | 177° |
| 2026-05-08 22:38 | -4.49927 | 55.46300 | 3409 ft | 170 kts | 177° |
| 2026-05-08 22:38 | -4.51119 | 55.46299 | 3278 ft | 169 kts | 177° |
| 2026-05-08 22:38 | -4.52298 | 55.46301 | 3119 ft | 168 kts | 176° |
| 2026-05-08 22:38 | -4.53446 | 55.46308 | 2923 ft | 160 kts | 176° |
| 2026-05-08 22:39 | -4.54534 | 55.46315 | 2743 ft | 152 kts | 176° |
| 2026-05-08 22:39 | -4.55585 | 55.46325 | 2557 ft | 149 kts | 176° |
| 2026-05-08 22:39 | -4.56619 | 55.46335 | 2402 ft | 149 kts | 176° |
| 2026-05-08 22:39 | -4.57660 | 55.46344 | 2218 ft | 149 kts | 176° |
| 2026-05-08 22:40 | -4.58708 | 55.46348 | 2023 ft | 148 kts | 177° |
| 2026-05-08 22:40 | -4.59747 | 55.46359 | 1824 ft | 148 kts | 176° |
| 2026-05-08 22:40 | -4.60774 | 55.46382 | 1622 ft | 147 kts | 176° |
| 2026-05-08 22:40 | -4.61781 | 55.46409 | 1405 ft | 144 kts | 176° |
| 2026-05-08 22:41 | -4.62793 | 55.46516 | 1185 ft | 147 kts | 162° |
| 2026-05-08 22:41 | -4.63706 | 55.46978 | 1053 ft | 147 kts | 140° |
| 2026-05-08 22:41 | -4.64368 | 55.47766 | 862 ft | 151 kts | 124° |
| 2026-05-08 22:41 | -4.64952 | 55.48664 | 669 ft | 154 kts | 125° |
| 2026-05-08 22:42 | -4.65571 | 55.49521 | 481 ft | 153 kts | 125° |
| 2026-05-08 22:42 | -4.66183 | 55.50400 | 277 ft | 154 kts | 125° |
| 2026-05-08 22:42 | -4.66799 | 55.51280 | 57 ft | 151 kts | 124° |
| 2026-05-08 22:42 | -4.67371 | 55.52097 | 25 ft | 125 kts | 125° |
| 2026-05-08 22:43 | -4.67768 | 55.52662 | 23 ft | 72 kts | 124° |
| 2026-05-08 22:43 | -4.67994 | 55.52989 | 24 ft | 51 kts | 122° |
| 2026-05-08 22:43 | -4.68109 | 55.53140 | 24 ft | 14 kts | 147° |
| 2026-05-08 22:43 | -4.68206 | 55.53167 | 24 ft | 14 kts | 168° |
| 2026-05-08 22:44 | -4.68266 | 55.53202 | 24 ft | 9 kts | 116° |
| 2026-05-08 22:44 | -4.68232 | 55.53256 | 24 ft | 11 kts | 25° |
| 2026-05-08 22:44 | -4.68179 | 55.53246 | 24 ft | 9 kts | 314° |
| 2026-05-08 22:44 | -4.68129 | 55.53178 | 24 ft | 13 kts | 304° |
| 2026-05-08 22:45 | -4.68071 | 55.53094 | 24 ft | 15 kts | 305° |
| 2026-05-08 22:45 | -4.68002 | 55.52995 | 24 ft | 18 kts | 305° |
| 2026-05-08 22:45 | -4.67924 | 55.52884 | 24 ft | 21 kts | 304° |
| 2026-05-08 22:45 | -4.67837 | 55.52758 | 23 ft | 22 kts | 305° |
| 2026-05-08 22:46 | -4.67747 | 55.52632 | 23 ft | 21 kts | 306° |
| 2026-05-08 22:46 | -4.67661 | 55.52508 | 23 ft | 21 kts | 304° |
| 2026-05-08 22:46 | -4.67575 | 55.52386 | 24 ft | 20 kts | 306° |
| 2026-05-08 22:46 | -4.67491 | 55.52268 | 24 ft | 20 kts | 305° |
| 2026-05-08 22:47 | -4.67411 | 55.52153 | 25 ft | 19 kts | 304° |
| 2026-05-08 22:47 | -4.67331 | 55.52038 | 26 ft | 20 kts | 305° |
| 2026-05-08 22:47 | -4.67246 | 55.51917 | 27 ft | 21 kts | 304° |
| 2026-05-08 22:47 | -4.67160 | 55.51792 | 29 ft | 21 kts | 305° |
| 2026-05-08 22:48 | -4.67073 | 55.51670 | 29 ft | 21 kts | 305° |
| 2026-05-08 22:48 | -4.66989 | 55.51550 | 29 ft | 20 kts | 305° |
| 2026-05-08 22:48 | -4.66909 | 55.51437 | 29 ft | 14 kts | 306° |
| 2026-05-08 22:48 | -4.66892 | 55.51399 | 29 ft | 5 kts | 266° |
| 2026-05-08 22:49 | -4.66920 | 55.51365 | 29 ft | 7 kts | 218° |
| 2026-05-08 22:49 | -4.66983 | 55.51321 | 29 ft | 3 kts | 215° |
| 2026-05-08 22:49 | -4.66987 | 55.51318 | 29 ft | 0 kts | 216° |
| 2026-05-08 22:50 | -4.66993 | 55.51313 | 29 ft | 2 kts | 217° |
| 2026-05-08 22:50 | -4.67008 | 55.51298 | 29 ft | 4 kts | 231° |
| 2026-05-08 22:50 | -4.67031 | 55.51275 | 29 ft | 4 kts | 218° |
| 2026-05-08 22:51 | -4.67052 | 55.51259 | 29 ft | 2 kts | 216° |
| 2026-05-08 22:51 | -4.67063 | 55.51251 | 29 ft | 1 kts | 216° |
| 2026-05-08 22:51 | -4.67069 | 55.51247 | 29 ft | 0 kts | 216° |